<?xml version="1.0" encoding="UTF-8" standalone="no" ?>
<gpx xmlns="http://www.topografix.com/GPX/1/1" xmlns:xsi="http://www.w3.org/2001/XMLSchema-instance" xsi:schemaLocation="http://www.topografix.com/GPX/1/1 http://www.topografix.com/GPX/1/1/gpx.xsd" version="1.1" creator="VisuGPX - https://www.visugpx.com">
  <metadata>
    <name>VILLELONGUE LE MUSEE DE LA RESISTANCE</name>
  </metadata>
  <wpt lat="44.19688" lon="2.28667">
    <ele>425.953125</ele>
    <name><![CDATA[DéPART VILLELONGUE LE MUSEE DE LA RESISTANCE]]></name>
    <type><![CDATA[user]]></type>
  </wpt>
  <trk>
    <name><![CDATA[VILLELONGUE LE MUSEE DE LA RESISTANCE]]></name>
    <trkseg>
      <trkpt lat="44.19682" lon="2.28677">
        <ele>425.04</ele>
        <time>2017-01-17T13:05:07Z</time>
      </trkpt>
      <trkpt lat="44.19687" lon="2.28625">
        <ele>422.58203125</ele>
      </trkpt>
      <trkpt lat="44.19664" lon="2.28592">
        <ele>416.37109375</ele>
      </trkpt>
      <trkpt lat="44.19682" lon="2.28554">
        <ele>423.6</ele>
        <time>2017-01-17T13:05:18Z</time>
      </trkpt>
      <trkpt lat="44.19684" lon="2.28538">
        <ele>421.68</ele>
        <time>2017-01-17T13:05:27Z</time>
      </trkpt>
      <trkpt lat="44.1969" lon="2.28522">
        <ele>419.75</ele>
        <time>2017-01-17T13:05:37Z</time>
      </trkpt>
      <trkpt lat="44.19696" lon="2.28508">
        <ele>417.35</ele>
        <time>2017-01-17T13:05:48Z</time>
      </trkpt>
      <trkpt lat="44.19704" lon="2.28495">
        <ele>415.43</ele>
        <time>2017-01-17T13:06:00Z</time>
      </trkpt>
      <trkpt lat="44.1971" lon="2.2848">
        <ele>413.98</ele>
        <time>2017-01-17T13:06:09Z</time>
      </trkpt>
      <trkpt lat="44.19718" lon="2.28468">
        <ele>412.54</ele>
        <time>2017-01-17T13:06:19Z</time>
      </trkpt>
      <trkpt lat="44.19728" lon="2.28456">
        <ele>410.62</ele>
        <time>2017-01-17T13:06:30Z</time>
      </trkpt>
      <trkpt lat="44.19738" lon="2.28444">
        <ele>407.26</ele>
        <time>2017-01-17T13:06:41Z</time>
      </trkpt>
      <trkpt lat="44.19743" lon="2.2843">
        <ele>406.29</ele>
        <time>2017-01-17T13:06:52Z</time>
      </trkpt>
      <trkpt lat="44.19738" lon="2.28413">
        <ele>404.37</ele>
        <time>2017-01-17T13:07:01Z</time>
      </trkpt>
      <trkpt lat="44.19732" lon="2.284">
        <ele>402.93</ele>
        <time>2017-01-17T13:07:10Z</time>
      </trkpt>
      <trkpt lat="44.19724" lon="2.28392">
        <ele>400.53</ele>
        <time>2017-01-17T13:07:20Z</time>
      </trkpt>
      <trkpt lat="44.19715" lon="2.28382">
        <ele>398.12</ele>
        <time>2017-01-17T13:07:30Z</time>
      </trkpt>
      <trkpt lat="44.19714" lon="2.28366">
        <ele>396.2</ele>
        <time>2017-01-17T13:07:41Z</time>
      </trkpt>
      <trkpt lat="44.19718" lon="2.28351">
        <ele>393.32</ele>
        <time>2017-01-17T13:07:54Z</time>
      </trkpt>
      <trkpt lat="44.19718" lon="2.28335">
        <ele>391.87</ele>
        <time>2017-01-17T13:08:03Z</time>
      </trkpt>
      <trkpt lat="44.19717" lon="2.28321">
        <ele>390.91</ele>
        <time>2017-01-17T13:08:11Z</time>
      </trkpt>
      <trkpt lat="44.19717" lon="2.28306">
        <ele>389.47</ele>
        <time>2017-01-17T13:08:20Z</time>
      </trkpt>
      <trkpt lat="44.19716" lon="2.28292">
        <ele>388.99</ele>
        <time>2017-01-17T13:08:28Z</time>
      </trkpt>
      <trkpt lat="44.19715" lon="2.28277">
        <ele>388.99</ele>
        <time>2017-01-17T13:08:36Z</time>
      </trkpt>
      <trkpt lat="44.19714" lon="2.28264">
        <ele>388.99</ele>
        <time>2017-01-17T13:08:44Z</time>
      </trkpt>
      <trkpt lat="44.19717" lon="2.28251">
        <ele>388.99</ele>
        <time>2017-01-17T13:08:53Z</time>
      </trkpt>
      <trkpt lat="44.19717" lon="2.28238">
        <ele>389.95</ele>
        <time>2017-01-17T13:09:02Z</time>
      </trkpt>
      <trkpt lat="44.19718" lon="2.28224">
        <ele>389.95</ele>
        <time>2017-01-17T13:09:11Z</time>
      </trkpt>
      <trkpt lat="44.19726" lon="2.28215">
        <ele>390.91</ele>
        <time>2017-01-17T13:09:22Z</time>
      </trkpt>
      <trkpt lat="44.19734" lon="2.28205">
        <ele>390.91</ele>
        <time>2017-01-17T13:09:33Z</time>
      </trkpt>
      <trkpt lat="44.19741" lon="2.28195">
        <ele>390.91</ele>
        <time>2017-01-17T13:09:43Z</time>
      </trkpt>
      <trkpt lat="44.19749" lon="2.2818">
        <ele>389.47</ele>
        <time>2017-01-17T13:09:55Z</time>
      </trkpt>
      <trkpt lat="44.19756" lon="2.28167">
        <ele>389.47</ele>
        <time>2017-01-17T13:10:04Z</time>
      </trkpt>
      <trkpt lat="44.19762" lon="2.28152">
        <ele>388.03</ele>
        <time>2017-01-17T13:10:15Z</time>
      </trkpt>
      <trkpt lat="44.19767" lon="2.28138">
        <ele>386.59</ele>
        <time>2017-01-17T13:10:26Z</time>
      </trkpt>
      <trkpt lat="44.19773" lon="2.28123">
        <ele>384.66</ele>
        <time>2017-01-17T13:10:38Z</time>
      </trkpt>
      <trkpt lat="44.19778" lon="2.28108">
        <ele>383.22</ele>
        <time>2017-01-17T13:10:48Z</time>
      </trkpt>
      <trkpt lat="44.19784" lon="2.28094">
        <ele>381.78</ele>
        <time>2017-01-17T13:10:58Z</time>
      </trkpt>
      <trkpt lat="44.1979" lon="2.28077">
        <ele>379.38</ele>
        <time>2017-01-17T13:11:09Z</time>
      </trkpt>
      <trkpt lat="44.19797" lon="2.28062">
        <ele>377.94</ele>
        <time>2017-01-17T13:11:20Z</time>
      </trkpt>
      <trkpt lat="44.19804" lon="2.28049">
        <ele>377.94</ele>
        <time>2017-01-17T13:11:30Z</time>
      </trkpt>
      <trkpt lat="44.19812" lon="2.28036">
        <ele>376.49</ele>
        <time>2017-01-17T13:11:41Z</time>
      </trkpt>
      <trkpt lat="44.19819" lon="2.28022">
        <ele>375.05</ele>
        <time>2017-01-17T13:11:51Z</time>
      </trkpt>
      <trkpt lat="44.19825" lon="2.28009">
        <ele>373.13</ele>
        <time>2017-01-17T13:12:00Z</time>
      </trkpt>
      <trkpt lat="44.19831" lon="2.27997">
        <ele>372.65</ele>
        <time>2017-01-17T13:12:10Z</time>
      </trkpt>
      <trkpt lat="44.1984" lon="2.27984">
        <ele>371.69</ele>
        <time>2017-01-17T13:12:21Z</time>
      </trkpt>
      <trkpt lat="44.19846" lon="2.27971">
        <ele>369.76</ele>
        <time>2017-01-17T13:12:31Z</time>
      </trkpt>
      <trkpt lat="44.19854" lon="2.2796">
        <ele>369.76</ele>
        <time>2017-01-17T13:12:40Z</time>
      </trkpt>
      <trkpt lat="44.1986" lon="2.2795">
        <ele>368.32</ele>
        <time>2017-01-17T13:12:50Z</time>
      </trkpt>
      <trkpt lat="44.19867" lon="2.27937">
        <ele>366.88</ele>
        <time>2017-01-17T13:13:01Z</time>
      </trkpt>
      <trkpt lat="44.19874" lon="2.27923">
        <ele>365.92</ele>
        <time>2017-01-17T13:13:13Z</time>
      </trkpt>
      <trkpt lat="44.19881" lon="2.27909">
        <ele>363.52</ele>
        <time>2017-01-17T13:13:24Z</time>
      </trkpt>
      <trkpt lat="44.19886" lon="2.27893">
        <ele>363.04</ele>
        <time>2017-01-17T13:13:36Z</time>
      </trkpt>
      <trkpt lat="44.19889" lon="2.27878">
        <ele>361.59</ele>
        <time>2017-01-17T13:13:46Z</time>
      </trkpt>
      <trkpt lat="44.19892" lon="2.27862">
        <ele>360.63</ele>
        <time>2017-01-17T13:13:56Z</time>
      </trkpt>
      <trkpt lat="44.19895" lon="2.27847">
        <ele>359.67</ele>
        <time>2017-01-17T13:14:07Z</time>
      </trkpt>
      <trkpt lat="44.19899" lon="2.27831">
        <ele>358.23</ele>
        <time>2017-01-17T13:14:19Z</time>
      </trkpt>
      <trkpt lat="44.19903" lon="2.27812">
        <ele>357.27</ele>
        <time>2017-01-17T13:14:30Z</time>
      </trkpt>
      <trkpt lat="44.19906" lon="2.27794">
        <ele>355.83</ele>
        <time>2017-01-17T13:14:42Z</time>
      </trkpt>
      <trkpt lat="44.19908" lon="2.27776">
        <ele>355.34</ele>
        <time>2017-01-17T13:14:55Z</time>
      </trkpt>
      <trkpt lat="44.1991" lon="2.2776">
        <ele>353.9</ele>
        <time>2017-01-17T13:15:06Z</time>
      </trkpt>
      <trkpt lat="44.19912" lon="2.2774">
        <ele>351.5</ele>
        <time>2017-01-17T13:15:18Z</time>
      </trkpt>
      <trkpt lat="44.19918" lon="2.27725">
        <ele>350.54</ele>
        <time>2017-01-17T13:15:28Z</time>
      </trkpt>
      <trkpt lat="44.19922" lon="2.27708">
        <ele>350.06</ele>
        <time>2017-01-17T13:15:38Z</time>
      </trkpt>
      <trkpt lat="44.19924" lon="2.2769">
        <ele>348.13</ele>
        <time>2017-01-17T13:15:48Z</time>
      </trkpt>
      <trkpt lat="44.19928" lon="2.27672">
        <ele>346.21</ele>
        <time>2017-01-17T13:15:58Z</time>
      </trkpt>
      <trkpt lat="44.19932" lon="2.27656">
        <ele>345.73</ele>
        <time>2017-01-17T13:16:08Z</time>
      </trkpt>
      <trkpt lat="44.19937" lon="2.27642">
        <ele>345.25</ele>
        <time>2017-01-17T13:16:18Z</time>
      </trkpt>
      <trkpt lat="44.19943" lon="2.2763">
        <ele>344.77</ele>
        <time>2017-01-17T13:16:27Z</time>
      </trkpt>
      <trkpt lat="44.19948" lon="2.27615">
        <ele>344.77</ele>
        <time>2017-01-17T13:16:36Z</time>
      </trkpt>
      <trkpt lat="44.19952" lon="2.276">
        <ele>344.29</ele>
        <time>2017-01-17T13:16:45Z</time>
      </trkpt>
      <trkpt lat="44.19954" lon="2.27587">
        <ele>343.33</ele>
        <time>2017-01-17T13:16:53Z</time>
      </trkpt>
      <trkpt lat="44.19955" lon="2.27572">
        <ele>342.37</ele>
        <time>2017-01-17T13:17:02Z</time>
      </trkpt>
      <trkpt lat="44.19954" lon="2.27558">
        <ele>341.41</ele>
        <time>2017-01-17T13:17:11Z</time>
      </trkpt>
      <trkpt lat="44.1995" lon="2.27544">
        <ele>340.44</ele>
        <time>2017-01-17T13:17:20Z</time>
      </trkpt>
      <trkpt lat="44.19943" lon="2.27537">
        <ele>339</ele>
        <time>2017-01-17T13:17:29Z</time>
      </trkpt>
      <trkpt lat="44.19934" lon="2.27532">
        <ele>337.08</ele>
        <time>2017-01-17T13:17:37Z</time>
      </trkpt>
      <trkpt lat="44.19925" lon="2.27527">
        <ele>336.12</ele>
        <time>2017-01-17T13:17:47Z</time>
      </trkpt>
      <trkpt lat="44.19916" lon="2.27523">
        <ele>333.71</ele>
        <time>2017-01-17T13:17:56Z</time>
      </trkpt>
      <trkpt lat="44.19906" lon="2.27518">
        <ele>332.27</ele>
        <time>2017-01-17T13:18:05Z</time>
      </trkpt>
      <trkpt lat="44.19897" lon="2.27513">
        <ele>329.87</ele>
        <time>2017-01-17T13:18:15Z</time>
      </trkpt>
      <trkpt lat="44.19887" lon="2.27508">
        <ele>328.43</ele>
        <time>2017-01-17T13:18:26Z</time>
      </trkpt>
      <trkpt lat="44.19877" lon="2.27498">
        <ele>326.5</ele>
        <time>2017-01-17T13:18:45Z</time>
      </trkpt>
      <trkpt lat="44.19878" lon="2.27484">
        <ele>325.54</ele>
        <time>2017-01-17T13:19:01Z</time>
      </trkpt>
      <trkpt lat="44.19871" lon="2.27483">
        <ele>325.06</ele>
        <time>2017-01-17T13:19:26Z</time>
      </trkpt>
      <trkpt lat="44.19863" lon="2.27476">
        <ele>323.62</ele>
        <time>2017-01-17T13:19:40Z</time>
      </trkpt>
      <trkpt lat="44.19855" lon="2.27467">
        <ele>321.7</ele>
        <time>2017-01-17T13:19:51Z</time>
      </trkpt>
      <trkpt lat="44.19848" lon="2.27456">
        <ele>320.74</ele>
        <time>2017-01-17T13:20:00Z</time>
      </trkpt>
      <trkpt lat="44.19842" lon="2.27443">
        <ele>319.78</ele>
        <time>2017-01-17T13:20:09Z</time>
      </trkpt>
      <trkpt lat="44.19836" lon="2.27429">
        <ele>318.33</ele>
        <time>2017-01-17T13:20:18Z</time>
      </trkpt>
      <trkpt lat="44.19832" lon="2.27417">
        <ele>317.37</ele>
        <time>2017-01-17T13:20:26Z</time>
      </trkpt>
      <trkpt lat="44.19826" lon="2.27406">
        <ele>316.41</ele>
        <time>2017-01-17T13:20:34Z</time>
      </trkpt>
      <trkpt lat="44.19819" lon="2.27398">
        <ele>315.93</ele>
        <time>2017-01-17T13:20:41Z</time>
      </trkpt>
      <trkpt lat="44.19815" lon="2.27385">
        <ele>315.45</ele>
        <time>2017-01-17T13:20:49Z</time>
      </trkpt>
      <trkpt lat="44.19818" lon="2.2737">
        <ele>314.97</ele>
        <time>2017-01-17T13:20:58Z</time>
      </trkpt>
      <trkpt lat="44.19823" lon="2.27358">
        <ele>314.49</ele>
        <time>2017-01-17T13:21:08Z</time>
      </trkpt>
      <trkpt lat="44.19829" lon="2.27347">
        <ele>313.05</ele>
        <time>2017-01-17T13:21:17Z</time>
      </trkpt>
      <trkpt lat="44.19836" lon="2.27336">
        <ele>313.05</ele>
        <time>2017-01-17T13:21:26Z</time>
      </trkpt>
      <trkpt lat="44.19845" lon="2.27328">
        <ele>312.09</ele>
        <time>2017-01-17T13:21:42Z</time>
      </trkpt>
      <trkpt lat="44.1985" lon="2.27315">
        <ele>310.64</ele>
        <time>2017-01-17T13:21:57Z</time>
      </trkpt>
      <trkpt lat="44.19857" lon="2.27303">
        <ele>309.2</ele>
        <time>2017-01-17T13:22:08Z</time>
      </trkpt>
      <trkpt lat="44.19857" lon="2.27286">
        <ele>305.36</ele>
        <time>2017-01-17T13:22:20Z</time>
      </trkpt>
      <trkpt lat="44.19863" lon="2.2728">
        <ele>301.51</ele>
        <time>2017-01-17T13:22:33Z</time>
      </trkpt>
      <trkpt lat="44.19874" lon="2.27283">
        <ele>296.7</ele>
        <time>2017-01-17T13:22:46Z</time>
      </trkpt>
      <trkpt lat="44.19884" lon="2.2728">
        <ele>294.78</ele>
        <time>2017-01-17T13:22:58Z</time>
      </trkpt>
      <trkpt lat="44.19894" lon="2.27277">
        <ele>294.3</ele>
        <time>2017-01-17T13:23:07Z</time>
      </trkpt>
      <trkpt lat="44.19905" lon="2.27271">
        <ele>297.18</ele>
        <time>2017-01-17T13:23:23Z</time>
      </trkpt>
      <trkpt lat="44.19913" lon="2.27265">
        <ele>297.18</ele>
        <time>2017-01-17T13:23:33Z</time>
      </trkpt>
      <trkpt lat="44.19915" lon="2.27253">
        <ele>297.67</ele>
        <time>2017-01-17T13:23:43Z</time>
      </trkpt>
      <trkpt lat="44.19922" lon="2.27246">
        <ele>300.07</ele>
        <time>2017-01-17T13:23:55Z</time>
      </trkpt>
      <trkpt lat="44.19929" lon="2.27258">
        <ele>301.51</ele>
        <time>2017-01-17T13:24:07Z</time>
      </trkpt>
      <trkpt lat="44.19934" lon="2.27272">
        <ele>302.47</ele>
        <time>2017-01-17T13:24:23Z</time>
      </trkpt>
      <trkpt lat="44.19931" lon="2.27282">
        <ele>303.43</ele>
        <time>2017-01-17T13:25:24Z</time>
      </trkpt>
      <trkpt lat="44.19939" lon="2.27287">
        <ele>303.43</ele>
        <time>2017-01-17T13:25:52Z</time>
      </trkpt>
      <trkpt lat="44.19947" lon="2.27296">
        <ele>305.36</ele>
        <time>2017-01-17T13:26:03Z</time>
      </trkpt>
      <trkpt lat="44.19954" lon="2.27305">
        <ele>305.36</ele>
        <time>2017-01-17T13:26:13Z</time>
      </trkpt>
      <trkpt lat="44.19963" lon="2.27312">
        <ele>306.8</ele>
        <time>2017-01-17T13:26:23Z</time>
      </trkpt>
      <trkpt lat="44.19971" lon="2.2732">
        <ele>308.24</ele>
        <time>2017-01-17T13:26:32Z</time>
      </trkpt>
      <trkpt lat="44.19979" lon="2.27329">
        <ele>308.72</ele>
        <time>2017-01-17T13:26:42Z</time>
      </trkpt>
      <trkpt lat="44.19989" lon="2.27336">
        <ele>308.72</ele>
        <time>2017-01-17T13:26:52Z</time>
      </trkpt>
      <trkpt lat="44.2" lon="2.27345">
        <ele>308.72</ele>
        <time>2017-01-17T13:27:02Z</time>
      </trkpt>
      <trkpt lat="44.20009" lon="2.27348">
        <ele>307.28</ele>
        <time>2017-01-17T13:27:13Z</time>
      </trkpt>
      <trkpt lat="44.20021" lon="2.27342">
        <ele>307.28</ele>
        <time>2017-01-17T13:27:26Z</time>
      </trkpt>
      <trkpt lat="44.20029" lon="2.27332">
        <ele>305.84</ele>
        <time>2017-01-17T13:27:38Z</time>
      </trkpt>
      <trkpt lat="44.20037" lon="2.27324">
        <ele>305.84</ele>
        <time>2017-01-17T13:27:46Z</time>
      </trkpt>
      <trkpt lat="44.20048" lon="2.27319">
        <ele>306.32</ele>
        <time>2017-01-17T13:27:59Z</time>
      </trkpt>
      <trkpt lat="44.20064" lon="2.27312">
        <ele>307.28</ele>
        <time>2017-01-17T13:28:13Z</time>
      </trkpt>
      <trkpt lat="44.20085" lon="2.27307">
        <ele>309.68</ele>
        <time>2017-01-17T13:28:28Z</time>
      </trkpt>
      <trkpt lat="44.201" lon="2.2731">
        <ele>310.64</ele>
        <time>2017-01-17T13:28:42Z</time>
      </trkpt>
      <trkpt lat="44.20116" lon="2.27318">
        <ele>311.6</ele>
        <time>2017-01-17T13:28:53Z</time>
      </trkpt>
      <trkpt lat="44.20127" lon="2.27326">
        <ele>312.09</ele>
        <time>2017-01-17T13:29:03Z</time>
      </trkpt>
      <trkpt lat="44.20137" lon="2.27334">
        <ele>313.05</ele>
        <time>2017-01-17T13:29:12Z</time>
      </trkpt>
      <trkpt lat="44.20148" lon="2.27342">
        <ele>314.01</ele>
        <time>2017-01-17T13:29:23Z</time>
      </trkpt>
      <trkpt lat="44.20158" lon="2.27346">
        <ele>314.49</ele>
        <time>2017-01-17T13:29:33Z</time>
      </trkpt>
      <trkpt lat="44.20168" lon="2.27349">
        <ele>314.49</ele>
        <time>2017-01-17T13:29:42Z</time>
      </trkpt>
      <trkpt lat="44.20179" lon="2.27359">
        <ele>314.97</ele>
        <time>2017-01-17T13:29:52Z</time>
      </trkpt>
      <trkpt lat="44.20186" lon="2.27369">
        <ele>316.41</ele>
        <time>2017-01-17T13:30:01Z</time>
      </trkpt>
      <trkpt lat="44.2019" lon="2.27382">
        <ele>317.37</ele>
        <time>2017-01-17T13:30:10Z</time>
      </trkpt>
      <trkpt lat="44.20192" lon="2.27397">
        <ele>317.37</ele>
        <time>2017-01-17T13:30:20Z</time>
      </trkpt>
      <trkpt lat="44.20193" lon="2.27412">
        <ele>317.85</ele>
        <time>2017-01-17T13:30:30Z</time>
      </trkpt>
      <trkpt lat="44.2019" lon="2.2743">
        <ele>318.33</ele>
        <time>2017-01-17T13:31:35Z</time>
      </trkpt>
      <trkpt lat="44.20192" lon="2.27434">
        <ele>318.33</ele>
        <time>2017-01-17T13:32:57Z</time>
      </trkpt>
      <trkpt lat="44.20193" lon="2.27449">
        <ele>316.89</ele>
        <time>2017-01-17T13:33:09Z</time>
      </trkpt>
      <trkpt lat="44.20193" lon="2.27464">
        <ele>315.93</ele>
        <time>2017-01-17T13:33:22Z</time>
      </trkpt>
      <trkpt lat="44.20195" lon="2.27479">
        <ele>314.49</ele>
        <time>2017-01-17T13:33:33Z</time>
      </trkpt>
      <trkpt lat="44.20197" lon="2.27496">
        <ele>313.53</ele>
        <time>2017-01-17T13:33:46Z</time>
      </trkpt>
      <trkpt lat="44.20196" lon="2.27515">
        <ele>312.09</ele>
        <time>2017-01-17T13:33:59Z</time>
      </trkpt>
      <trkpt lat="44.20193" lon="2.27531">
        <ele>312.09</ele>
        <time>2017-01-17T13:34:10Z</time>
      </trkpt>
      <trkpt lat="44.20188" lon="2.27545">
        <ele>311.12</ele>
        <time>2017-01-17T13:34:20Z</time>
      </trkpt>
      <trkpt lat="44.20182" lon="2.27557">
        <ele>310.16</ele>
        <time>2017-01-17T13:34:29Z</time>
      </trkpt>
      <trkpt lat="44.20181" lon="2.27572">
        <ele>310.16</ele>
        <time>2017-01-17T13:34:39Z</time>
      </trkpt>
      <trkpt lat="44.2018" lon="2.27587">
        <ele>310.16</ele>
        <time>2017-01-17T13:34:51Z</time>
      </trkpt>
      <trkpt lat="44.20177" lon="2.27602">
        <ele>309.68</ele>
        <time>2017-01-17T13:35:02Z</time>
      </trkpt>
      <trkpt lat="44.20174" lon="2.27615">
        <ele>307.76</ele>
        <time>2017-01-17T13:35:12Z</time>
      </trkpt>
      <trkpt lat="44.20169" lon="2.27628">
        <ele>306.8</ele>
        <time>2017-01-17T13:35:21Z</time>
      </trkpt>
      <trkpt lat="44.20163" lon="2.27641">
        <ele>306.8</ele>
        <time>2017-01-17T13:35:31Z</time>
      </trkpt>
      <trkpt lat="44.20156" lon="2.27653">
        <ele>305.84</ele>
        <time>2017-01-17T13:35:41Z</time>
      </trkpt>
      <trkpt lat="44.20147" lon="2.27662">
        <ele>303.91</ele>
        <time>2017-01-17T13:35:51Z</time>
      </trkpt>
      <trkpt lat="44.20138" lon="2.27671">
        <ele>301.99</ele>
        <time>2017-01-17T13:36:01Z</time>
      </trkpt>
      <trkpt lat="44.20128" lon="2.27676">
        <ele>301.03</ele>
        <time>2017-01-17T13:36:10Z</time>
      </trkpt>
      <trkpt lat="44.20118" lon="2.27676">
        <ele>300.55</ele>
        <time>2017-01-17T13:36:19Z</time>
      </trkpt>
      <trkpt lat="44.20107" lon="2.27674">
        <ele>300.55</ele>
        <time>2017-01-17T13:36:32Z</time>
      </trkpt>
      <trkpt lat="44.20098" lon="2.27684">
        <ele>303.43</ele>
        <time>2017-01-17T13:36:44Z</time>
      </trkpt>
      <trkpt lat="44.20092" lon="2.27695">
        <ele>305.84</ele>
        <time>2017-01-17T13:37:05Z</time>
      </trkpt>
      <trkpt lat="44.20087" lon="2.2771">
        <ele>307.28</ele>
        <time>2017-01-17T13:37:22Z</time>
      </trkpt>
      <trkpt lat="44.20084" lon="2.27725">
        <ele>309.68</ele>
        <time>2017-01-17T13:37:34Z</time>
      </trkpt>
      <trkpt lat="44.20082" lon="2.27739">
        <ele>312.57</ele>
        <time>2017-01-17T13:37:47Z</time>
      </trkpt>
      <trkpt lat="44.20092" lon="2.27733">
        <ele>315.93</ele>
        <time>2017-01-17T13:38:21Z</time>
      </trkpt>
      <trkpt lat="44.20102" lon="2.2773">
        <ele>317.37</ele>
        <time>2017-01-17T13:38:31Z</time>
      </trkpt>
      <trkpt lat="44.20109" lon="2.27736">
        <ele>318.81</ele>
        <time>2017-01-17T13:38:55Z</time>
      </trkpt>
      <trkpt lat="44.20117" lon="2.27745">
        <ele>320.74</ele>
        <time>2017-01-17T13:39:09Z</time>
      </trkpt>
      <trkpt lat="44.20124" lon="2.27754">
        <ele>323.14</ele>
        <time>2017-01-17T13:39:22Z</time>
      </trkpt>
      <trkpt lat="44.20132" lon="2.27763">
        <ele>324.58</ele>
        <time>2017-01-17T13:39:42Z</time>
      </trkpt>
      <trkpt lat="44.20139" lon="2.27773">
        <ele>325.06</ele>
        <time>2017-01-17T13:39:54Z</time>
      </trkpt>
      <trkpt lat="44.20151" lon="2.2778">
        <ele>325.54</ele>
        <time>2017-01-17T13:40:05Z</time>
      </trkpt>
      <trkpt lat="44.2016" lon="2.27788">
        <ele>326.02</ele>
        <time>2017-01-17T13:40:15Z</time>
      </trkpt>
      <trkpt lat="44.20157" lon="2.278">
        <ele>326.02</ele>
        <time>2017-01-17T13:40:26Z</time>
      </trkpt>
      <trkpt lat="44.20146" lon="2.27803">
        <ele>327.95</ele>
        <time>2017-01-17T13:40:37Z</time>
      </trkpt>
      <trkpt lat="44.20136" lon="2.27811">
        <ele>328.91</ele>
        <time>2017-01-17T13:40:48Z</time>
      </trkpt>
      <trkpt lat="44.20131" lon="2.27811">
        <ele>331.31</ele>
        <time>2017-01-17T13:41:00Z</time>
      </trkpt>
      <trkpt lat="44.20138" lon="2.27799">
        <ele>332.75</ele>
        <time>2017-01-17T13:41:16Z</time>
      </trkpt>
      <trkpt lat="44.2013" lon="2.27793">
        <ele>334.68</ele>
        <time>2017-01-17T13:41:29Z</time>
      </trkpt>
      <trkpt lat="44.2012" lon="2.27794">
        <ele>336.6</ele>
        <time>2017-01-17T13:41:43Z</time>
      </trkpt>
      <trkpt lat="44.20113" lon="2.278">
        <ele>338.52</ele>
        <time>2017-01-17T13:42:55Z</time>
      </trkpt>
      <trkpt lat="44.20108" lon="2.27803">
        <ele>337.08</ele>
        <time>2017-01-17T13:43:58Z</time>
      </trkpt>
      <trkpt lat="44.20105" lon="2.27805">
        <ele>336.6</ele>
        <time>2017-01-17T13:44:47Z</time>
      </trkpt>
      <trkpt lat="44.20104" lon="2.27812">
        <ele>338.52</ele>
        <time>2017-01-17T13:45:40Z</time>
      </trkpt>
      <trkpt lat="44.20101" lon="2.27818">
        <ele>337.08</ele>
        <time>2017-01-17T13:46:28Z</time>
      </trkpt>
      <trkpt lat="44.20098" lon="2.27817">
        <ele>336.6</ele>
        <time>2017-01-17T13:50:34Z</time>
      </trkpt>
      <trkpt lat="44.20096" lon="2.27823">
        <ele>337.08</ele>
        <time>2017-01-17T13:52:24Z</time>
      </trkpt>
      <trkpt lat="44.201" lon="2.2782">
        <ele>338.04</ele>
        <time>2017-01-17T13:53:09Z</time>
      </trkpt>
      <trkpt lat="44.20105" lon="2.27808">
        <ele>338.04</ele>
        <time>2017-01-17T13:53:26Z</time>
      </trkpt>
      <trkpt lat="44.2011" lon="2.27799">
        <ele>336.12</ele>
        <time>2017-01-17T13:53:48Z</time>
      </trkpt>
      <trkpt lat="44.20119" lon="2.27793">
        <ele>335.16</ele>
        <time>2017-01-17T13:54:14Z</time>
      </trkpt>
      <trkpt lat="44.20129" lon="2.2779">
        <ele>333.23</ele>
        <time>2017-01-17T13:54:25Z</time>
      </trkpt>
      <trkpt lat="44.20139" lon="2.27793">
        <ele>332.27</ele>
        <time>2017-01-17T13:54:33Z</time>
      </trkpt>
      <trkpt lat="44.20136" lon="2.27804">
        <ele>330.35</ele>
        <time>2017-01-17T13:54:42Z</time>
      </trkpt>
      <trkpt lat="44.20137" lon="2.27809">
        <ele>328.43</ele>
        <time>2017-01-17T13:54:57Z</time>
      </trkpt>
      <trkpt lat="44.20146" lon="2.27804">
        <ele>326.99</ele>
        <time>2017-01-17T13:55:07Z</time>
      </trkpt>
      <trkpt lat="44.20157" lon="2.27803">
        <ele>325.06</ele>
        <time>2017-01-17T13:55:18Z</time>
      </trkpt>
      <trkpt lat="44.20164" lon="2.27794">
        <ele>323.62</ele>
        <time>2017-01-17T13:55:29Z</time>
      </trkpt>
      <trkpt lat="44.20174" lon="2.27787">
        <ele>323.62</ele>
        <time>2017-01-17T13:55:40Z</time>
      </trkpt>
      <trkpt lat="44.20183" lon="2.2778">
        <ele>325.54</ele>
        <time>2017-01-17T13:55:52Z</time>
      </trkpt>
      <trkpt lat="44.20194" lon="2.27775">
        <ele>326.99</ele>
        <time>2017-01-17T13:56:03Z</time>
      </trkpt>
      <trkpt lat="44.20204" lon="2.2777">
        <ele>328.91</ele>
        <time>2017-01-17T13:56:16Z</time>
      </trkpt>
      <trkpt lat="44.20214" lon="2.27768">
        <ele>330.83</ele>
        <time>2017-01-17T13:56:31Z</time>
      </trkpt>
      <trkpt lat="44.20222" lon="2.2776">
        <ele>332.75</ele>
        <time>2017-01-17T13:56:45Z</time>
      </trkpt>
      <trkpt lat="44.20231" lon="2.27749">
        <ele>335.16</ele>
        <time>2017-01-17T13:57:04Z</time>
      </trkpt>
      <trkpt lat="44.20241" lon="2.27743">
        <ele>336.6</ele>
        <time>2017-01-17T13:57:17Z</time>
      </trkpt>
      <trkpt lat="44.20251" lon="2.27735">
        <ele>338.52</ele>
        <time>2017-01-17T13:57:29Z</time>
      </trkpt>
      <trkpt lat="44.2026" lon="2.27727">
        <ele>340.92</ele>
        <time>2017-01-17T13:57:44Z</time>
      </trkpt>
      <trkpt lat="44.20271" lon="2.27721">
        <ele>343.81</ele>
        <time>2017-01-17T13:57:58Z</time>
      </trkpt>
      <trkpt lat="44.20281" lon="2.27714">
        <ele>346.21</ele>
        <time>2017-01-17T13:58:12Z</time>
      </trkpt>
      <trkpt lat="44.20291" lon="2.27708">
        <ele>348.62</ele>
        <time>2017-01-17T13:58:30Z</time>
      </trkpt>
      <trkpt lat="44.203" lon="2.27702">
        <ele>350.54</ele>
        <time>2017-01-17T13:58:47Z</time>
      </trkpt>
      <trkpt lat="44.20308" lon="2.27696">
        <ele>352.94</ele>
        <time>2017-01-17T13:59:01Z</time>
      </trkpt>
      <trkpt lat="44.20318" lon="2.27692">
        <ele>354.86</ele>
        <time>2017-01-17T13:59:15Z</time>
      </trkpt>
      <trkpt lat="44.20328" lon="2.27687">
        <ele>357.75</ele>
        <time>2017-01-17T13:59:34Z</time>
      </trkpt>
      <trkpt lat="44.20324" lon="2.27694">
        <ele>358.23</ele>
        <time>2017-01-17T14:00:08Z</time>
      </trkpt>
      <trkpt lat="44.20319" lon="2.27707">
        <ele>361.11</ele>
        <time>2017-01-17T14:00:22Z</time>
      </trkpt>
      <trkpt lat="44.20318" lon="2.27721">
        <ele>363.04</ele>
        <time>2017-01-17T14:00:37Z</time>
      </trkpt>
      <trkpt lat="44.20321" lon="2.27735">
        <ele>365.92</ele>
        <time>2017-01-17T14:00:52Z</time>
      </trkpt>
      <trkpt lat="44.20322" lon="2.2775">
        <ele>368.32</ele>
        <time>2017-01-17T14:01:05Z</time>
      </trkpt>
      <trkpt lat="44.20327" lon="2.27765">
        <ele>370.73</ele>
        <time>2017-01-17T14:01:18Z</time>
      </trkpt>
      <trkpt lat="44.20331" lon="2.27778">
        <ele>373.61</ele>
        <time>2017-01-17T14:01:32Z</time>
      </trkpt>
      <trkpt lat="44.20339" lon="2.27781">
        <ele>376.01</ele>
        <time>2017-01-17T14:01:51Z</time>
      </trkpt>
      <trkpt lat="44.20347" lon="2.27773">
        <ele>376.97</ele>
        <time>2017-01-17T14:02:04Z</time>
      </trkpt>
      <trkpt lat="44.20356" lon="2.27768">
        <ele>379.38</ele>
        <time>2017-01-17T14:02:19Z</time>
      </trkpt>
      <trkpt lat="44.20361" lon="2.27779">
        <ele>381.3</ele>
        <time>2017-01-17T14:02:34Z</time>
      </trkpt>
      <trkpt lat="44.20361" lon="2.27794">
        <ele>384.66</ele>
        <time>2017-01-17T14:02:51Z</time>
      </trkpt>
      <trkpt lat="44.20363" lon="2.2781">
        <ele>387.55</ele>
        <time>2017-01-17T14:03:06Z</time>
      </trkpt>
      <trkpt lat="44.20369" lon="2.27822">
        <ele>389.47</ele>
        <time>2017-01-17T14:03:18Z</time>
      </trkpt>
      <trkpt lat="44.20375" lon="2.27833">
        <ele>391.87</ele>
        <time>2017-01-17T14:03:31Z</time>
      </trkpt>
      <trkpt lat="44.20384" lon="2.27839">
        <ele>394.76</ele>
        <time>2017-01-17T14:03:45Z</time>
      </trkpt>
      <trkpt lat="44.20391" lon="2.27831">
        <ele>397.64</ele>
        <time>2017-01-17T14:04:01Z</time>
      </trkpt>
      <trkpt lat="44.20399" lon="2.27825">
        <ele>399.57</ele>
        <time>2017-01-17T14:04:14Z</time>
      </trkpt>
      <trkpt lat="44.2041" lon="2.27824">
        <ele>401.49</ele>
        <time>2017-01-17T14:04:28Z</time>
      </trkpt>
      <trkpt lat="44.20421" lon="2.27825">
        <ele>403.41</ele>
        <time>2017-01-17T14:04:41Z</time>
      </trkpt>
      <trkpt lat="44.20431" lon="2.27826">
        <ele>405.33</ele>
        <time>2017-01-17T14:04:54Z</time>
      </trkpt>
      <trkpt lat="44.20442" lon="2.27826">
        <ele>406.77</ele>
        <time>2017-01-17T14:05:07Z</time>
      </trkpt>
      <trkpt lat="44.20454" lon="2.27827">
        <ele>408.22</ele>
        <time>2017-01-17T14:05:20Z</time>
      </trkpt>
      <trkpt lat="44.20465" lon="2.27828">
        <ele>409.66</ele>
        <time>2017-01-17T14:05:34Z</time>
      </trkpt>
      <trkpt lat="44.20476" lon="2.27829">
        <ele>411.58</ele>
        <time>2017-01-17T14:05:47Z</time>
      </trkpt>
      <trkpt lat="44.20487" lon="2.27833">
        <ele>413.5</ele>
        <time>2017-01-17T14:05:59Z</time>
      </trkpt>
      <trkpt lat="44.20497" lon="2.27834">
        <ele>415.43</ele>
        <time>2017-01-17T14:06:11Z</time>
      </trkpt>
      <trkpt lat="44.20507" lon="2.27834">
        <ele>417.35</ele>
        <time>2017-01-17T14:06:23Z</time>
      </trkpt>
      <trkpt lat="44.20517" lon="2.27834">
        <ele>418.31</ele>
        <time>2017-01-17T14:06:34Z</time>
      </trkpt>
      <trkpt lat="44.20527" lon="2.2784">
        <ele>419.27</ele>
        <time>2017-01-17T14:06:46Z</time>
      </trkpt>
      <trkpt lat="44.20533" lon="2.27852">
        <ele>420.23</ele>
        <time>2017-01-17T14:06:58Z</time>
      </trkpt>
      <trkpt lat="44.20536" lon="2.27865">
        <ele>422.64</ele>
        <time>2017-01-17T14:07:09Z</time>
      </trkpt>
      <trkpt lat="44.20537" lon="2.27878">
        <ele>424.08</ele>
        <time>2017-01-17T14:07:20Z</time>
      </trkpt>
      <trkpt lat="44.20539" lon="2.27891">
        <ele>425.52</ele>
        <time>2017-01-17T14:07:31Z</time>
      </trkpt>
      <trkpt lat="44.20541" lon="2.27904">
        <ele>427.44</ele>
        <time>2017-01-17T14:07:42Z</time>
      </trkpt>
      <trkpt lat="44.20542" lon="2.27917">
        <ele>428.4</ele>
        <time>2017-01-17T14:07:53Z</time>
      </trkpt>
      <trkpt lat="44.20544" lon="2.2793">
        <ele>426.96</ele>
        <time>2017-01-17T14:08:03Z</time>
      </trkpt>
      <trkpt lat="44.20546" lon="2.27942">
        <ele>428.89</ele>
        <time>2017-01-17T14:08:13Z</time>
      </trkpt>
      <trkpt lat="44.20549" lon="2.27954">
        <ele>431.29</ele>
        <time>2017-01-17T14:08:23Z</time>
      </trkpt>
      <trkpt lat="44.20552" lon="2.27967">
        <ele>431.77</ele>
        <time>2017-01-17T14:08:33Z</time>
      </trkpt>
      <trkpt lat="44.20556" lon="2.2798">
        <ele>435.13</ele>
        <time>2017-01-17T14:08:43Z</time>
      </trkpt>
      <trkpt lat="44.20559" lon="2.27992">
        <ele>435.61</ele>
        <time>2017-01-17T14:08:53Z</time>
      </trkpt>
      <trkpt lat="44.20563" lon="2.28006">
        <ele>437.06</ele>
        <time>2017-01-17T14:09:03Z</time>
      </trkpt>
      <trkpt lat="44.20564" lon="2.28019">
        <ele>438.98</ele>
        <time>2017-01-17T14:09:13Z</time>
      </trkpt>
      <trkpt lat="44.20566" lon="2.28033">
        <ele>439.94</ele>
        <time>2017-01-17T14:09:23Z</time>
      </trkpt>
      <trkpt lat="44.20568" lon="2.28047">
        <ele>440.9</ele>
        <time>2017-01-17T14:09:33Z</time>
      </trkpt>
      <trkpt lat="44.20571" lon="2.28059">
        <ele>441.86</ele>
        <time>2017-01-17T14:09:45Z</time>
      </trkpt>
      <trkpt lat="44.20575" lon="2.2807">
        <ele>442.34</ele>
        <time>2017-01-17T14:09:54Z</time>
      </trkpt>
      <trkpt lat="44.20581" lon="2.28082">
        <ele>442.34</ele>
        <time>2017-01-17T14:10:03Z</time>
      </trkpt>
      <trkpt lat="44.20585" lon="2.28094">
        <ele>442.82</ele>
        <time>2017-01-17T14:10:12Z</time>
      </trkpt>
      <trkpt lat="44.2059" lon="2.28106">
        <ele>443.79</ele>
        <time>2017-01-17T14:10:21Z</time>
      </trkpt>
      <trkpt lat="44.20594" lon="2.28118">
        <ele>443.79</ele>
        <time>2017-01-17T14:10:30Z</time>
      </trkpt>
      <trkpt lat="44.20599" lon="2.28131">
        <ele>445.23</ele>
        <time>2017-01-17T14:10:40Z</time>
      </trkpt>
      <trkpt lat="44.20604" lon="2.28142">
        <ele>447.15</ele>
        <time>2017-01-17T14:10:49Z</time>
      </trkpt>
      <trkpt lat="44.20608" lon="2.28154">
        <ele>446.67</ele>
        <time>2017-01-17T14:10:59Z</time>
      </trkpt>
      <trkpt lat="44.20612" lon="2.28166">
        <ele>447.63</ele>
        <time>2017-01-17T14:11:08Z</time>
      </trkpt>
      <trkpt lat="44.20616" lon="2.28178">
        <ele>448.59</ele>
        <time>2017-01-17T14:11:17Z</time>
      </trkpt>
      <trkpt lat="44.20622" lon="2.28191">
        <ele>447.63</ele>
        <time>2017-01-17T14:11:27Z</time>
      </trkpt>
      <trkpt lat="44.20626" lon="2.28202">
        <ele>448.11</ele>
        <time>2017-01-17T14:11:36Z</time>
      </trkpt>
      <trkpt lat="44.2063" lon="2.28214">
        <ele>448.59</ele>
        <time>2017-01-17T14:11:45Z</time>
      </trkpt>
      <trkpt lat="44.20635" lon="2.28226">
        <ele>450.52</ele>
        <time>2017-01-17T14:11:54Z</time>
      </trkpt>
      <trkpt lat="44.20641" lon="2.28237">
        <ele>451</ele>
        <time>2017-01-17T14:12:03Z</time>
      </trkpt>
      <trkpt lat="44.20646" lon="2.28248">
        <ele>451</ele>
        <time>2017-01-17T14:12:12Z</time>
      </trkpt>
      <trkpt lat="44.20651" lon="2.2826">
        <ele>451.96</ele>
        <time>2017-01-17T14:12:31Z</time>
      </trkpt>
      <trkpt lat="44.20657" lon="2.28268">
        <ele>450.03</ele>
        <time>2017-01-17T14:12:45Z</time>
      </trkpt>
      <trkpt lat="44.20664" lon="2.28277">
        <ele>450.03</ele>
        <time>2017-01-17T14:12:54Z</time>
      </trkpt>
      <trkpt lat="44.20671" lon="2.28287">
        <ele>449.07</ele>
        <time>2017-01-17T14:13:04Z</time>
      </trkpt>
      <trkpt lat="44.20677" lon="2.28297">
        <ele>449.07</ele>
        <time>2017-01-17T14:13:14Z</time>
      </trkpt>
      <trkpt lat="44.20684" lon="2.28306">
        <ele>447.63</ele>
        <time>2017-01-17T14:13:22Z</time>
      </trkpt>
      <trkpt lat="44.20692" lon="2.28315">
        <ele>447.63</ele>
        <time>2017-01-17T14:13:30Z</time>
      </trkpt>
      <trkpt lat="44.20699" lon="2.28325">
        <ele>447.15</ele>
        <time>2017-01-17T14:13:39Z</time>
      </trkpt>
      <trkpt lat="44.20706" lon="2.28334">
        <ele>447.15</ele>
        <time>2017-01-17T14:13:47Z</time>
      </trkpt>
      <trkpt lat="44.20714" lon="2.28342">
        <ele>447.15</ele>
        <time>2017-01-17T14:13:58Z</time>
      </trkpt>
      <trkpt lat="44.2072" lon="2.28352">
        <ele>446.19</ele>
        <time>2017-01-17T14:14:10Z</time>
      </trkpt>
      <trkpt lat="44.20729" lon="2.28362">
        <ele>447.63</ele>
        <time>2017-01-17T14:14:20Z</time>
      </trkpt>
      <trkpt lat="44.20736" lon="2.2837">
        <ele>447.63</ele>
        <time>2017-01-17T14:14:29Z</time>
      </trkpt>
      <trkpt lat="44.20743" lon="2.28379">
        <ele>445.71</ele>
        <time>2017-01-17T14:14:38Z</time>
      </trkpt>
      <trkpt lat="44.2075" lon="2.28388">
        <ele>445.71</ele>
        <time>2017-01-17T14:14:47Z</time>
      </trkpt>
      <trkpt lat="44.20758" lon="2.28397">
        <ele>445.71</ele>
        <time>2017-01-17T14:14:56Z</time>
      </trkpt>
      <trkpt lat="44.20766" lon="2.28406">
        <ele>445.71</ele>
        <time>2017-01-17T14:15:05Z</time>
      </trkpt>
      <trkpt lat="44.20773" lon="2.28414">
        <ele>445.71</ele>
        <time>2017-01-17T14:15:13Z</time>
      </trkpt>
      <trkpt lat="44.20779" lon="2.28423">
        <ele>444.75</ele>
        <time>2017-01-17T14:15:21Z</time>
      </trkpt>
      <trkpt lat="44.20786" lon="2.28431">
        <ele>444.27</ele>
        <time>2017-01-17T14:15:29Z</time>
      </trkpt>
      <trkpt lat="44.20794" lon="2.2844">
        <ele>444.75</ele>
        <time>2017-01-17T14:15:38Z</time>
      </trkpt>
      <trkpt lat="44.20801" lon="2.28449">
        <ele>447.15</ele>
        <time>2017-01-17T14:15:49Z</time>
      </trkpt>
      <trkpt lat="44.20808" lon="2.28458">
        <ele>446.67</ele>
        <time>2017-01-17T14:15:58Z</time>
      </trkpt>
      <trkpt lat="44.20815" lon="2.28466">
        <ele>447.15</ele>
        <time>2017-01-17T14:16:10Z</time>
      </trkpt>
      <trkpt lat="44.20822" lon="2.28474">
        <ele>445.71</ele>
        <time>2017-01-17T14:16:20Z</time>
      </trkpt>
      <trkpt lat="44.20829" lon="2.28482">
        <ele>445.71</ele>
        <time>2017-01-17T14:16:30Z</time>
      </trkpt>
      <trkpt lat="44.20836" lon="2.2849">
        <ele>445.71</ele>
        <time>2017-01-17T14:16:40Z</time>
      </trkpt>
      <trkpt lat="44.20843" lon="2.28498">
        <ele>446.67</ele>
        <time>2017-01-17T14:16:50Z</time>
      </trkpt>
      <trkpt lat="44.20849" lon="2.28507">
        <ele>446.67</ele>
        <time>2017-01-17T14:17:00Z</time>
      </trkpt>
      <trkpt lat="44.20855" lon="2.28516">
        <ele>446.67</ele>
        <time>2017-01-17T14:17:10Z</time>
      </trkpt>
      <trkpt lat="44.20861" lon="2.28525">
        <ele>447.15</ele>
        <time>2017-01-17T14:17:20Z</time>
      </trkpt>
      <trkpt lat="44.20867" lon="2.28535">
        <ele>447.15</ele>
        <time>2017-01-17T14:17:30Z</time>
      </trkpt>
      <trkpt lat="44.20873" lon="2.28545">
        <ele>447.63</ele>
        <time>2017-01-17T14:17:40Z</time>
      </trkpt>
      <trkpt lat="44.20879" lon="2.28554">
        <ele>448.11</ele>
        <time>2017-01-17T14:17:50Z</time>
      </trkpt>
      <trkpt lat="44.20886" lon="2.28564">
        <ele>448.59</ele>
        <time>2017-01-17T14:18:01Z</time>
      </trkpt>
      <trkpt lat="44.20893" lon="2.28574">
        <ele>448.59</ele>
        <time>2017-01-17T14:18:11Z</time>
      </trkpt>
      <trkpt lat="44.20899" lon="2.28584">
        <ele>448.59</ele>
        <time>2017-01-17T14:18:21Z</time>
      </trkpt>
      <trkpt lat="44.20905" lon="2.28594">
        <ele>449.55</ele>
        <time>2017-01-17T14:18:31Z</time>
      </trkpt>
      <trkpt lat="44.20911" lon="2.28604">
        <ele>450.03</ele>
        <time>2017-01-17T14:18:42Z</time>
      </trkpt>
      <trkpt lat="44.20918" lon="2.28615">
        <ele>448.59</ele>
        <time>2017-01-17T14:18:52Z</time>
      </trkpt>
      <trkpt lat="44.20924" lon="2.28624">
        <ele>450.52</ele>
        <time>2017-01-17T14:19:01Z</time>
      </trkpt>
      <trkpt lat="44.2093" lon="2.28635">
        <ele>448.59</ele>
        <time>2017-01-17T14:19:11Z</time>
      </trkpt>
      <trkpt lat="44.20936" lon="2.28646">
        <ele>450.03</ele>
        <time>2017-01-17T14:19:21Z</time>
      </trkpt>
      <trkpt lat="44.20942" lon="2.28656">
        <ele>450.03</ele>
        <time>2017-01-17T14:19:31Z</time>
      </trkpt>
      <trkpt lat="44.2095" lon="2.28664">
        <ele>449.07</ele>
        <time>2017-01-17T14:19:41Z</time>
      </trkpt>
      <trkpt lat="44.20957" lon="2.28674">
        <ele>450.03</ele>
        <time>2017-01-17T14:19:51Z</time>
      </trkpt>
      <trkpt lat="44.20965" lon="2.28683">
        <ele>448.11</ele>
        <time>2017-01-17T14:20:01Z</time>
      </trkpt>
      <trkpt lat="44.20973" lon="2.28692">
        <ele>450.52</ele>
        <time>2017-01-17T14:20:11Z</time>
      </trkpt>
      <trkpt lat="44.20981" lon="2.28702">
        <ele>449.55</ele>
        <time>2017-01-17T14:20:21Z</time>
      </trkpt>
      <trkpt lat="44.20988" lon="2.2871">
        <ele>449.55</ele>
        <time>2017-01-17T14:20:30Z</time>
      </trkpt>
      <trkpt lat="44.20997" lon="2.28718">
        <ele>451</ele>
        <time>2017-01-17T14:20:40Z</time>
      </trkpt>
      <trkpt lat="44.21005" lon="2.28725">
        <ele>449.55</ele>
        <time>2017-01-17T14:20:50Z</time>
      </trkpt>
      <trkpt lat="44.21015" lon="2.28731">
        <ele>450.52</ele>
        <time>2017-01-17T14:21:00Z</time>
      </trkpt>
      <trkpt lat="44.21024" lon="2.28737">
        <ele>449.07</ele>
        <time>2017-01-17T14:21:10Z</time>
      </trkpt>
      <trkpt lat="44.21033" lon="2.28742">
        <ele>447.63</ele>
        <time>2017-01-17T14:21:20Z</time>
      </trkpt>
      <trkpt lat="44.21041" lon="2.28749">
        <ele>449.07</ele>
        <time>2017-01-17T14:21:29Z</time>
      </trkpt>
      <trkpt lat="44.21046" lon="2.28755">
        <ele>450.52</ele>
        <time>2017-01-17T14:22:05Z</time>
      </trkpt>
      <trkpt lat="44.21045" lon="2.28755">
        <ele>449.07</ele>
        <time>2017-01-17T14:23:38Z</time>
      </trkpt>
      <trkpt lat="44.21045" lon="2.28756">
        <ele>448.11</ele>
        <time>2017-01-17T14:25:28Z</time>
      </trkpt>
      <trkpt lat="44.2105" lon="2.28762">
        <ele>449.55</ele>
        <time>2017-01-17T14:25:54Z</time>
      </trkpt>
      <trkpt lat="44.21058" lon="2.2877">
        <ele>448.11</ele>
        <time>2017-01-17T14:26:06Z</time>
      </trkpt>
      <trkpt lat="44.21065" lon="2.28779">
        <ele>450.03</ele>
        <time>2017-01-17T14:26:15Z</time>
      </trkpt>
      <trkpt lat="44.21071" lon="2.28787">
        <ele>450.03</ele>
        <time>2017-01-17T14:26:27Z</time>
      </trkpt>
      <trkpt lat="44.21078" lon="2.28797">
        <ele>450.52</ele>
        <time>2017-01-17T14:26:43Z</time>
      </trkpt>
      <trkpt lat="44.21085" lon="2.28807">
        <ele>449.55</ele>
        <time>2017-01-17T14:26:51Z</time>
      </trkpt>
      <trkpt lat="44.21091" lon="2.28818">
        <ele>449.07</ele>
        <time>2017-01-17T14:26:59Z</time>
      </trkpt>
      <trkpt lat="44.21097" lon="2.2883">
        <ele>450.03</ele>
        <time>2017-01-17T14:27:07Z</time>
      </trkpt>
      <trkpt lat="44.21101" lon="2.2884">
        <ele>448.59</ele>
        <time>2017-01-17T14:27:15Z</time>
      </trkpt>
      <trkpt lat="44.21106" lon="2.28851">
        <ele>450.03</ele>
        <time>2017-01-17T14:27:24Z</time>
      </trkpt>
      <trkpt lat="44.21108" lon="2.28862">
        <ele>450.03</ele>
        <time>2017-01-17T14:27:42Z</time>
      </trkpt>
      <trkpt lat="44.21114" lon="2.28874">
        <ele>450.03</ele>
        <time>2017-01-17T14:27:50Z</time>
      </trkpt>
      <trkpt lat="44.2112" lon="2.28885">
        <ele>450.03</ele>
        <time>2017-01-17T14:27:58Z</time>
      </trkpt>
      <trkpt lat="44.21126" lon="2.28897">
        <ele>449.07</ele>
        <time>2017-01-17T14:28:06Z</time>
      </trkpt>
      <trkpt lat="44.21132" lon="2.28909">
        <ele>450.03</ele>
        <time>2017-01-17T14:28:14Z</time>
      </trkpt>
      <trkpt lat="44.21137" lon="2.2892">
        <ele>449.07</ele>
        <time>2017-01-17T14:28:21Z</time>
      </trkpt>
      <trkpt lat="44.2114" lon="2.28933">
        <ele>450.03</ele>
        <time>2017-01-17T14:28:29Z</time>
      </trkpt>
      <trkpt lat="44.21142" lon="2.28946">
        <ele>450.03</ele>
        <time>2017-01-17T14:28:37Z</time>
      </trkpt>
      <trkpt lat="44.21145" lon="2.28959">
        <ele>450.03</ele>
        <time>2017-01-17T14:28:45Z</time>
      </trkpt>
      <trkpt lat="44.21148" lon="2.28973">
        <ele>448.59</ele>
        <time>2017-01-17T14:28:53Z</time>
      </trkpt>
      <trkpt lat="44.21149" lon="2.28987">
        <ele>448.59</ele>
        <time>2017-01-17T14:29:01Z</time>
      </trkpt>
      <trkpt lat="44.21151" lon="2.29001">
        <ele>448.59</ele>
        <time>2017-01-17T14:29:09Z</time>
      </trkpt>
      <trkpt lat="44.21152" lon="2.29014">
        <ele>448.59</ele>
        <time>2017-01-17T14:29:17Z</time>
      </trkpt>
      <trkpt lat="44.21154" lon="2.29028">
        <ele>448.59</ele>
        <time>2017-01-17T14:29:25Z</time>
      </trkpt>
      <trkpt lat="44.21155" lon="2.29041">
        <ele>448.59</ele>
        <time>2017-01-17T14:29:33Z</time>
      </trkpt>
      <trkpt lat="44.21156" lon="2.29055">
        <ele>448.59</ele>
        <time>2017-01-17T14:29:41Z</time>
      </trkpt>
      <trkpt lat="44.21156" lon="2.29068">
        <ele>448.11</ele>
        <time>2017-01-17T14:29:49Z</time>
      </trkpt>
      <trkpt lat="44.21157" lon="2.29082">
        <ele>448.11</ele>
        <time>2017-01-17T14:29:57Z</time>
      </trkpt>
      <trkpt lat="44.21158" lon="2.29096">
        <ele>447.63</ele>
        <time>2017-01-17T14:30:05Z</time>
      </trkpt>
      <trkpt lat="44.21159" lon="2.29109">
        <ele>447.63</ele>
        <time>2017-01-17T14:30:13Z</time>
      </trkpt>
      <trkpt lat="44.21161" lon="2.29123">
        <ele>447.15</ele>
        <time>2017-01-17T14:30:21Z</time>
      </trkpt>
      <trkpt lat="44.21164" lon="2.29137">
        <ele>445.71</ele>
        <time>2017-01-17T14:30:29Z</time>
      </trkpt>
      <trkpt lat="44.21167" lon="2.29152">
        <ele>445.23</ele>
        <time>2017-01-17T14:30:37Z</time>
      </trkpt>
      <trkpt lat="44.21169" lon="2.29165">
        <ele>444.75</ele>
        <time>2017-01-17T14:30:45Z</time>
      </trkpt>
      <trkpt lat="44.21173" lon="2.29177">
        <ele>443.79</ele>
        <time>2017-01-17T14:30:55Z</time>
      </trkpt>
      <trkpt lat="44.21176" lon="2.2919">
        <ele>440.9</ele>
        <time>2017-01-17T14:31:05Z</time>
      </trkpt>
      <trkpt lat="44.21181" lon="2.29204">
        <ele>438.5</ele>
        <time>2017-01-17T14:31:15Z</time>
      </trkpt>
      <trkpt lat="44.21184" lon="2.29217">
        <ele>438.02</ele>
        <time>2017-01-17T14:31:24Z</time>
      </trkpt>
      <trkpt lat="44.21186" lon="2.29231">
        <ele>435.61</ele>
        <time>2017-01-17T14:31:34Z</time>
      </trkpt>
      <trkpt lat="44.21184" lon="2.29246">
        <ele>433.69</ele>
        <time>2017-01-17T14:31:47Z</time>
      </trkpt>
      <trkpt lat="44.21173" lon="2.29254">
        <ele>432.25</ele>
        <time>2017-01-17T14:31:58Z</time>
      </trkpt>
      <trkpt lat="44.21163" lon="2.29265">
        <ele>429.85</ele>
        <time>2017-01-17T14:32:09Z</time>
      </trkpt>
      <trkpt lat="44.21155" lon="2.29276">
        <ele>426.96</ele>
        <time>2017-01-17T14:32:22Z</time>
      </trkpt>
      <trkpt lat="44.21148" lon="2.29289">
        <ele>423.6</ele>
        <time>2017-01-17T14:32:36Z</time>
      </trkpt>
      <trkpt lat="44.21139" lon="2.293">
        <ele>421.19</ele>
        <time>2017-01-17T14:32:52Z</time>
      </trkpt>
      <trkpt lat="44.21128" lon="2.29307">
        <ele>418.79</ele>
        <time>2017-01-17T14:33:03Z</time>
      </trkpt>
      <trkpt lat="44.21124" lon="2.29318">
        <ele>417.35</ele>
        <time>2017-01-17T14:33:14Z</time>
      </trkpt>
      <trkpt lat="44.21133" lon="2.29325">
        <ele>413.98</ele>
        <time>2017-01-17T14:33:26Z</time>
      </trkpt>
      <trkpt lat="44.21144" lon="2.29327">
        <ele>411.1</ele>
        <time>2017-01-17T14:33:40Z</time>
      </trkpt>
      <trkpt lat="44.21144" lon="2.29339">
        <ele>409.66</ele>
        <time>2017-01-17T14:33:51Z</time>
      </trkpt>
      <trkpt lat="44.21135" lon="2.29345">
        <ele>408.7</ele>
        <time>2017-01-17T14:34:01Z</time>
      </trkpt>
      <trkpt lat="44.21124" lon="2.2935">
        <ele>407.74</ele>
        <time>2017-01-17T14:34:12Z</time>
      </trkpt>
      <trkpt lat="44.21111" lon="2.29353">
        <ele>406.77</ele>
        <time>2017-01-17T14:34:24Z</time>
      </trkpt>
      <trkpt lat="44.21098" lon="2.29351">
        <ele>404.85</ele>
        <time>2017-01-17T14:34:35Z</time>
      </trkpt>
      <trkpt lat="44.21083" lon="2.29348">
        <ele>402.93</ele>
        <time>2017-01-17T14:34:49Z</time>
      </trkpt>
      <trkpt lat="44.2107" lon="2.29344">
        <ele>401.97</ele>
        <time>2017-01-17T14:35:00Z</time>
      </trkpt>
      <trkpt lat="44.21059" lon="2.2934">
        <ele>400.05</ele>
        <time>2017-01-17T14:35:11Z</time>
      </trkpt>
      <trkpt lat="44.21047" lon="2.29346">
        <ele>397.16</ele>
        <time>2017-01-17T14:35:24Z</time>
      </trkpt>
      <trkpt lat="44.21034" lon="2.29353">
        <ele>394.76</ele>
        <time>2017-01-17T14:35:36Z</time>
      </trkpt>
      <trkpt lat="44.21024" lon="2.2936">
        <ele>393.32</ele>
        <time>2017-01-17T14:35:48Z</time>
      </trkpt>
      <trkpt lat="44.21014" lon="2.29368">
        <ele>391.39</ele>
        <time>2017-01-17T14:36:00Z</time>
      </trkpt>
      <trkpt lat="44.21003" lon="2.29371">
        <ele>388.51</ele>
        <time>2017-01-17T14:36:12Z</time>
      </trkpt>
      <trkpt lat="44.20994" lon="2.29356">
        <ele>386.11</ele>
        <time>2017-01-17T14:36:24Z</time>
      </trkpt>
      <trkpt lat="44.20986" lon="2.29344">
        <ele>384.18</ele>
        <time>2017-01-17T14:36:36Z</time>
      </trkpt>
      <trkpt lat="44.20979" lon="2.29333">
        <ele>382.26</ele>
        <time>2017-01-17T14:36:47Z</time>
      </trkpt>
      <trkpt lat="44.2097" lon="2.29325">
        <ele>379.38</ele>
        <time>2017-01-17T14:37:01Z</time>
      </trkpt>
      <trkpt lat="44.20965" lon="2.29327">
        <ele>376.49</ele>
        <time>2017-01-17T14:37:13Z</time>
      </trkpt>
      <trkpt lat="44.20968" lon="2.29338">
        <ele>374.09</ele>
        <time>2017-01-17T14:37:24Z</time>
      </trkpt>
      <trkpt lat="44.20969" lon="2.29352">
        <ele>372.65</ele>
        <time>2017-01-17T14:37:36Z</time>
      </trkpt>
      <trkpt lat="44.20969" lon="2.29367">
        <ele>369.76</ele>
        <time>2017-01-17T14:37:49Z</time>
      </trkpt>
      <trkpt lat="44.20968" lon="2.29383">
        <ele>366.88</ele>
        <time>2017-01-17T14:38:03Z</time>
      </trkpt>
      <trkpt lat="44.20967" lon="2.29399">
        <ele>365.44</ele>
        <time>2017-01-17T14:38:15Z</time>
      </trkpt>
      <trkpt lat="44.20968" lon="2.29417">
        <ele>364.48</ele>
        <time>2017-01-17T14:38:27Z</time>
      </trkpt>
      <trkpt lat="44.20975" lon="2.29429">
        <ele>361.59</ele>
        <time>2017-01-17T14:38:39Z</time>
      </trkpt>
      <trkpt lat="44.20982" lon="2.29441">
        <ele>359.19</ele>
        <time>2017-01-17T14:38:51Z</time>
      </trkpt>
      <trkpt lat="44.20989" lon="2.29453">
        <ele>357.27</ele>
        <time>2017-01-17T14:39:03Z</time>
      </trkpt>
      <trkpt lat="44.20998" lon="2.29466">
        <ele>354.38</ele>
        <time>2017-01-17T14:39:16Z</time>
      </trkpt>
      <trkpt lat="44.21005" lon="2.29479">
        <ele>352.94</ele>
        <time>2017-01-17T14:39:27Z</time>
      </trkpt>
      <trkpt lat="44.2101" lon="2.29491">
        <ele>350.54</ele>
        <time>2017-01-17T14:39:38Z</time>
      </trkpt>
      <trkpt lat="44.21017" lon="2.29503">
        <ele>347.65</ele>
        <time>2017-01-17T14:39:51Z</time>
      </trkpt>
      <trkpt lat="44.21024" lon="2.29515">
        <ele>343.81</ele>
        <time>2017-01-17T14:40:04Z</time>
      </trkpt>
      <trkpt lat="44.21026" lon="2.29531">
        <ele>339.48</ele>
        <time>2017-01-17T14:40:21Z</time>
      </trkpt>
      <trkpt lat="44.21026" lon="2.29549">
        <ele>336.6</ele>
        <time>2017-01-17T14:40:36Z</time>
      </trkpt>
      <trkpt lat="44.21017" lon="2.2956">
        <ele>333.71</ele>
        <time>2017-01-17T14:40:50Z</time>
      </trkpt>
      <trkpt lat="44.21009" lon="2.2957">
        <ele>330.83</ele>
        <time>2017-01-17T14:41:01Z</time>
      </trkpt>
      <trkpt lat="44.21005" lon="2.29584">
        <ele>328.43</ele>
        <time>2017-01-17T14:41:12Z</time>
      </trkpt>
      <trkpt lat="44.20995" lon="2.29593">
        <ele>326.02</ele>
        <time>2017-01-17T14:41:23Z</time>
      </trkpt>
      <trkpt lat="44.20984" lon="2.29591">
        <ele>325.54</ele>
        <time>2017-01-17T14:41:32Z</time>
      </trkpt>
      <trkpt lat="44.20974" lon="2.29578">
        <ele>325.54</ele>
        <time>2017-01-17T14:41:57Z</time>
      </trkpt>
      <trkpt lat="44.20951" lon="2.29552">
        <ele>325.54</ele>
        <time>2017-01-17T14:42:30Z</time>
      </trkpt>
      <trkpt lat="44.20935" lon="2.29539">
        <ele>325.06</ele>
        <time>2017-01-17T14:42:43Z</time>
      </trkpt>
      <trkpt lat="44.20926" lon="2.2953">
        <ele>324.58</ele>
        <time>2017-01-17T14:42:53Z</time>
      </trkpt>
      <trkpt lat="44.20915" lon="2.29525">
        <ele>324.1</ele>
        <time>2017-01-17T14:43:04Z</time>
      </trkpt>
      <trkpt lat="44.20904" lon="2.29518">
        <ele>323.14</ele>
        <time>2017-01-17T14:43:14Z</time>
      </trkpt>
      <trkpt lat="44.20895" lon="2.29511">
        <ele>323.14</ele>
        <time>2017-01-17T14:43:24Z</time>
      </trkpt>
      <trkpt lat="44.20885" lon="2.295">
        <ele>324.58</ele>
        <time>2017-01-17T14:43:36Z</time>
      </trkpt>
      <trkpt lat="44.20873" lon="2.29494">
        <ele>324.58</ele>
        <time>2017-01-17T14:43:48Z</time>
      </trkpt>
      <trkpt lat="44.20863" lon="2.29487">
        <ele>324.58</ele>
        <time>2017-01-17T14:44:00Z</time>
      </trkpt>
      <trkpt lat="44.20851" lon="2.29481">
        <ele>323.62</ele>
        <time>2017-01-17T14:44:14Z</time>
      </trkpt>
      <trkpt lat="44.2084" lon="2.29468">
        <ele>323.62</ele>
        <time>2017-01-17T14:44:26Z</time>
      </trkpt>
      <trkpt lat="44.20831" lon="2.29458">
        <ele>323.14</ele>
        <time>2017-01-17T14:44:38Z</time>
      </trkpt>
      <trkpt lat="44.20821" lon="2.29449">
        <ele>323.14</ele>
        <time>2017-01-17T14:44:49Z</time>
      </trkpt>
      <trkpt lat="44.20812" lon="2.29438">
        <ele>322.66</ele>
        <time>2017-01-17T14:44:59Z</time>
      </trkpt>
      <trkpt lat="44.20803" lon="2.29427">
        <ele>323.14</ele>
        <time>2017-01-17T14:45:11Z</time>
      </trkpt>
      <trkpt lat="44.20792" lon="2.29423">
        <ele>323.14</ele>
        <time>2017-01-17T14:45:26Z</time>
      </trkpt>
      <trkpt lat="44.20781" lon="2.29425">
        <ele>323.14</ele>
        <time>2017-01-17T14:45:39Z</time>
      </trkpt>
      <trkpt lat="44.20773" lon="2.29428">
        <ele>326.02</ele>
        <time>2017-01-17T14:46:02Z</time>
      </trkpt>
      <trkpt lat="44.20764" lon="2.29432">
        <ele>326.02</ele>
        <time>2017-01-17T14:46:16Z</time>
      </trkpt>
      <trkpt lat="44.2076" lon="2.29432">
        <ele>327.47</ele>
        <time>2017-01-17T14:47:14Z</time>
      </trkpt>
      <trkpt lat="44.20746" lon="2.29438">
        <ele>329.39</ele>
        <time>2017-01-17T14:47:33Z</time>
      </trkpt>
      <trkpt lat="44.20734" lon="2.2943">
        <ele>323.62</ele>
        <time>2017-01-17T14:48:03Z</time>
      </trkpt>
      <trkpt lat="44.20738" lon="2.29411">
        <ele>323.14</ele>
        <time>2017-01-17T14:48:18Z</time>
      </trkpt>
      <trkpt lat="44.20743" lon="2.29395">
        <ele>323.14</ele>
        <time>2017-01-17T14:48:32Z</time>
      </trkpt>
      <trkpt lat="44.20746" lon="2.2938">
        <ele>324.1</ele>
        <time>2017-01-17T14:48:44Z</time>
      </trkpt>
      <trkpt lat="44.2075" lon="2.2936">
        <ele>324.1</ele>
        <time>2017-01-17T14:48:58Z</time>
      </trkpt>
      <trkpt lat="44.20753" lon="2.29344">
        <ele>324.1</ele>
        <time>2017-01-17T14:49:10Z</time>
      </trkpt>
      <trkpt lat="44.2076" lon="2.29323">
        <ele>322.66</ele>
        <time>2017-01-17T14:49:23Z</time>
      </trkpt>
      <trkpt lat="44.20763" lon="2.29299">
        <ele>322.66</ele>
        <time>2017-01-17T14:49:40Z</time>
      </trkpt>
      <trkpt lat="44.20775" lon="2.29288">
        <ele>325.06</ele>
        <time>2017-01-17T14:49:53Z</time>
      </trkpt>
      <trkpt lat="44.20775" lon="2.29266">
        <ele>325.54</ele>
        <time>2017-01-17T14:50:05Z</time>
      </trkpt>
      <trkpt lat="44.20775" lon="2.29239">
        <ele>325.06</ele>
        <time>2017-01-17T14:50:19Z</time>
      </trkpt>
      <trkpt lat="44.20768" lon="2.29222">
        <ele>323.14</ele>
        <time>2017-01-17T14:50:29Z</time>
      </trkpt>
      <trkpt lat="44.20767" lon="2.29203">
        <ele>321.7</ele>
        <time>2017-01-17T14:50:42Z</time>
      </trkpt>
      <trkpt lat="44.20767" lon="2.29178">
        <ele>321.7</ele>
        <time>2017-01-17T14:50:56Z</time>
      </trkpt>
      <trkpt lat="44.20765" lon="2.29158">
        <ele>323.62</ele>
        <time>2017-01-17T14:51:09Z</time>
      </trkpt>
      <trkpt lat="44.20758" lon="2.29144">
        <ele>321.7</ele>
        <time>2017-01-17T14:51:21Z</time>
      </trkpt>
      <trkpt lat="44.20751" lon="2.29128">
        <ele>320.74</ele>
        <time>2017-01-17T14:51:31Z</time>
      </trkpt>
      <trkpt lat="44.20743" lon="2.29113">
        <ele>319.3</ele>
        <time>2017-01-17T14:51:43Z</time>
      </trkpt>
      <trkpt lat="44.20736" lon="2.29099">
        <ele>318.33</ele>
        <time>2017-01-17T14:51:54Z</time>
      </trkpt>
      <trkpt lat="44.20729" lon="2.29086">
        <ele>317.37</ele>
        <time>2017-01-17T14:52:07Z</time>
      </trkpt>
      <trkpt lat="44.20722" lon="2.2907">
        <ele>317.37</ele>
        <time>2017-01-17T14:52:17Z</time>
      </trkpt>
      <trkpt lat="44.20714" lon="2.29057">
        <ele>316.89</ele>
        <time>2017-01-17T14:52:33Z</time>
      </trkpt>
      <trkpt lat="44.20708" lon="2.29043">
        <ele>316.89</ele>
        <time>2017-01-17T14:52:45Z</time>
      </trkpt>
      <trkpt lat="44.207" lon="2.29032">
        <ele>316.41</ele>
        <time>2017-01-17T14:52:55Z</time>
      </trkpt>
      <trkpt lat="44.20691" lon="2.29022">
        <ele>315.93</ele>
        <time>2017-01-17T14:53:05Z</time>
      </trkpt>
      <trkpt lat="44.20682" lon="2.29013">
        <ele>315.93</ele>
        <time>2017-01-17T14:53:16Z</time>
      </trkpt>
      <trkpt lat="44.20671" lon="2.29006">
        <ele>315.45</ele>
        <time>2017-01-17T14:53:27Z</time>
      </trkpt>
      <trkpt lat="44.20658" lon="2.28999">
        <ele>315.45</ele>
        <time>2017-01-17T14:53:40Z</time>
      </trkpt>
      <trkpt lat="44.20648" lon="2.28993">
        <ele>316.89</ele>
        <time>2017-01-17T14:53:54Z</time>
      </trkpt>
      <trkpt lat="44.20638" lon="2.28988">
        <ele>317.85</ele>
        <time>2017-01-17T14:54:05Z</time>
      </trkpt>
      <trkpt lat="44.20627" lon="2.28983">
        <ele>319.3</ele>
        <time>2017-01-17T14:54:18Z</time>
      </trkpt>
      <trkpt lat="44.20617" lon="2.28986">
        <ele>316.89</ele>
        <time>2017-01-17T14:54:28Z</time>
      </trkpt>
      <trkpt lat="44.20606" lon="2.28986">
        <ele>315.45</ele>
        <time>2017-01-17T14:54:38Z</time>
      </trkpt>
      <trkpt lat="44.20596" lon="2.28983">
        <ele>314.49</ele>
        <time>2017-01-17T14:54:48Z</time>
      </trkpt>
      <trkpt lat="44.20584" lon="2.28983">
        <ele>314.49</ele>
        <time>2017-01-17T14:54:59Z</time>
      </trkpt>
      <trkpt lat="44.20573" lon="2.28983">
        <ele>314.49</ele>
        <time>2017-01-17T14:55:11Z</time>
      </trkpt>
      <trkpt lat="44.20562" lon="2.28986">
        <ele>314.01</ele>
        <time>2017-01-17T14:55:22Z</time>
      </trkpt>
      <trkpt lat="44.20552" lon="2.28984">
        <ele>313.05</ele>
        <time>2017-01-17T14:55:32Z</time>
      </trkpt>
      <trkpt lat="44.20539" lon="2.28983">
        <ele>313.53</ele>
        <time>2017-01-17T14:55:42Z</time>
      </trkpt>
      <trkpt lat="44.20527" lon="2.28982">
        <ele>312.57</ele>
        <time>2017-01-17T14:55:51Z</time>
      </trkpt>
      <trkpt lat="44.20517" lon="2.28974">
        <ele>312.57</ele>
        <time>2017-01-17T14:56:01Z</time>
      </trkpt>
      <trkpt lat="44.20507" lon="2.28972">
        <ele>312.57</ele>
        <time>2017-01-17T14:56:10Z</time>
      </trkpt>
      <trkpt lat="44.20499" lon="2.28976">
        <ele>314.01</ele>
        <time>2017-01-17T14:56:20Z</time>
      </trkpt>
      <trkpt lat="44.20497" lon="2.28987">
        <ele>314.01</ele>
        <time>2017-01-17T14:56:30Z</time>
      </trkpt>
      <trkpt lat="44.20498" lon="2.29">
        <ele>314.49</ele>
        <time>2017-01-17T14:56:39Z</time>
      </trkpt>
      <trkpt lat="44.20501" lon="2.29014">
        <ele>314.97</ele>
        <time>2017-01-17T14:56:50Z</time>
      </trkpt>
      <trkpt lat="44.205" lon="2.29028">
        <ele>315.93</ele>
        <time>2017-01-17T14:57:01Z</time>
      </trkpt>
      <trkpt lat="44.20496" lon="2.29042">
        <ele>317.85</ele>
        <time>2017-01-17T14:57:12Z</time>
      </trkpt>
      <trkpt lat="44.20493" lon="2.29055">
        <ele>320.26</ele>
        <time>2017-01-17T14:57:23Z</time>
      </trkpt>
      <trkpt lat="44.20489" lon="2.29069">
        <ele>321.7</ele>
        <time>2017-01-17T14:57:38Z</time>
      </trkpt>
      <trkpt lat="44.20485" lon="2.2908">
        <ele>323.14</ele>
        <time>2017-01-17T14:58:00Z</time>
      </trkpt>
      <trkpt lat="44.20482" lon="2.29093">
        <ele>324.58</ele>
        <time>2017-01-17T14:58:19Z</time>
      </trkpt>
      <trkpt lat="44.2048" lon="2.29105">
        <ele>325.06</ele>
        <time>2017-01-17T14:58:42Z</time>
      </trkpt>
      <trkpt lat="44.20477" lon="2.29118">
        <ele>327.47</ele>
        <time>2017-01-17T14:58:53Z</time>
      </trkpt>
      <trkpt lat="44.20474" lon="2.2913">
        <ele>329.39</ele>
        <time>2017-01-17T14:59:05Z</time>
      </trkpt>
      <trkpt lat="44.20469" lon="2.29142">
        <ele>331.79</ele>
        <time>2017-01-17T14:59:17Z</time>
      </trkpt>
      <trkpt lat="44.20464" lon="2.29152">
        <ele>333.71</ele>
        <time>2017-01-17T14:59:27Z</time>
      </trkpt>
      <trkpt lat="44.20457" lon="2.29163">
        <ele>335.16</ele>
        <time>2017-01-17T14:59:38Z</time>
      </trkpt>
      <trkpt lat="44.20448" lon="2.29172">
        <ele>336.6</ele>
        <time>2017-01-17T14:59:48Z</time>
      </trkpt>
      <trkpt lat="44.20439" lon="2.29176">
        <ele>338.52</ele>
        <time>2017-01-17T14:59:58Z</time>
      </trkpt>
      <trkpt lat="44.20429" lon="2.29179">
        <ele>339.96</ele>
        <time>2017-01-17T15:00:14Z</time>
      </trkpt>
      <trkpt lat="44.20421" lon="2.29186">
        <ele>341.41</ele>
        <time>2017-01-17T15:00:25Z</time>
      </trkpt>
      <trkpt lat="44.20415" lon="2.29196">
        <ele>343.33</ele>
        <time>2017-01-17T15:00:35Z</time>
      </trkpt>
      <trkpt lat="44.20405" lon="2.29193">
        <ele>344.29</ele>
        <time>2017-01-17T15:00:48Z</time>
      </trkpt>
      <trkpt lat="44.20399" lon="2.29181">
        <ele>344.29</ele>
        <time>2017-01-17T15:00:57Z</time>
      </trkpt>
      <trkpt lat="44.20394" lon="2.2917">
        <ele>345.73</ele>
        <time>2017-01-17T15:01:06Z</time>
      </trkpt>
      <trkpt lat="44.20389" lon="2.29159">
        <ele>346.21</ele>
        <time>2017-01-17T15:01:15Z</time>
      </trkpt>
      <trkpt lat="44.20384" lon="2.29147">
        <ele>346.21</ele>
        <time>2017-01-17T15:01:25Z</time>
      </trkpt>
      <trkpt lat="44.20378" lon="2.29134">
        <ele>346.69</ele>
        <time>2017-01-17T15:01:34Z</time>
      </trkpt>
      <trkpt lat="44.20374" lon="2.29121">
        <ele>347.17</ele>
        <time>2017-01-17T15:01:43Z</time>
      </trkpt>
      <trkpt lat="44.20369" lon="2.29108">
        <ele>347.65</ele>
        <time>2017-01-17T15:01:52Z</time>
      </trkpt>
      <trkpt lat="44.20366" lon="2.29094">
        <ele>347.65</ele>
        <time>2017-01-17T15:02:02Z</time>
      </trkpt>
      <trkpt lat="44.20364" lon="2.29078">
        <ele>347.65</ele>
        <time>2017-01-17T15:02:14Z</time>
      </trkpt>
      <trkpt lat="44.20359" lon="2.29065">
        <ele>347.65</ele>
        <time>2017-01-17T15:02:24Z</time>
      </trkpt>
      <trkpt lat="44.20357" lon="2.29051">
        <ele>347.65</ele>
        <time>2017-01-17T15:02:33Z</time>
      </trkpt>
      <trkpt lat="44.20354" lon="2.29036">
        <ele>348.13</ele>
        <time>2017-01-17T15:02:45Z</time>
      </trkpt>
      <trkpt lat="44.20353" lon="2.29021">
        <ele>348.62</ele>
        <time>2017-01-17T15:02:59Z</time>
      </trkpt>
      <trkpt lat="44.2035" lon="2.29007">
        <ele>349.58</ele>
        <time>2017-01-17T15:03:12Z</time>
      </trkpt>
      <trkpt lat="44.20351" lon="2.28992">
        <ele>350.06</ele>
        <time>2017-01-17T15:03:24Z</time>
      </trkpt>
      <trkpt lat="44.20355" lon="2.28979">
        <ele>350.54</ele>
        <time>2017-01-17T15:03:34Z</time>
      </trkpt>
      <trkpt lat="44.2036" lon="2.28965">
        <ele>351.02</ele>
        <time>2017-01-17T15:03:44Z</time>
      </trkpt>
      <trkpt lat="44.20366" lon="2.28954">
        <ele>352.94</ele>
        <time>2017-01-17T15:03:58Z</time>
      </trkpt>
      <trkpt lat="44.20371" lon="2.28946">
        <ele>352.94</ele>
        <time>2017-01-17T15:04:19Z</time>
      </trkpt>
      <trkpt lat="44.20375" lon="2.28954">
        <ele>352.94</ele>
        <time>2017-01-17T15:04:42Z</time>
      </trkpt>
      <trkpt lat="44.20374" lon="2.28939">
        <ele>353.42</ele>
        <time>2017-01-17T15:04:51Z</time>
      </trkpt>
      <trkpt lat="44.20365" lon="2.28936">
        <ele>354.86</ele>
        <time>2017-01-17T15:05:02Z</time>
      </trkpt>
      <trkpt lat="44.20354" lon="2.28938">
        <ele>355.83</ele>
        <time>2017-01-17T15:05:12Z</time>
      </trkpt>
      <trkpt lat="44.20346" lon="2.28929">
        <ele>358.23</ele>
        <time>2017-01-17T15:05:22Z</time>
      </trkpt>
      <trkpt lat="44.20337" lon="2.28923">
        <ele>358.71</ele>
        <time>2017-01-17T15:05:32Z</time>
      </trkpt>
      <trkpt lat="44.20328" lon="2.28916">
        <ele>356.31</ele>
        <time>2017-01-17T15:05:46Z</time>
      </trkpt>
      <trkpt lat="44.20317" lon="2.28908">
        <ele>355.34</ele>
        <time>2017-01-17T15:05:58Z</time>
      </trkpt>
      <trkpt lat="44.20304" lon="2.28898">
        <ele>353.9</ele>
        <time>2017-01-17T15:06:11Z</time>
      </trkpt>
      <trkpt lat="44.20294" lon="2.28885">
        <ele>352.94</ele>
        <time>2017-01-17T15:06:23Z</time>
      </trkpt>
      <trkpt lat="44.20285" lon="2.28874">
        <ele>351.5</ele>
        <time>2017-01-17T15:06:34Z</time>
      </trkpt>
      <trkpt lat="44.20276" lon="2.28858">
        <ele>351.5</ele>
        <time>2017-01-17T15:06:46Z</time>
      </trkpt>
      <trkpt lat="44.20269" lon="2.28842">
        <ele>351.5</ele>
        <time>2017-01-17T15:06:57Z</time>
      </trkpt>
      <trkpt lat="44.20258" lon="2.28839">
        <ele>348.62</ele>
        <time>2017-01-17T15:07:14Z</time>
      </trkpt>
      <trkpt lat="44.2025" lon="2.28847">
        <ele>345.73</ele>
        <time>2017-01-17T15:07:38Z</time>
      </trkpt>
      <trkpt lat="44.20243" lon="2.28859">
        <ele>343.33</ele>
        <time>2017-01-17T15:07:49Z</time>
      </trkpt>
      <trkpt lat="44.20234" lon="2.28869">
        <ele>341.41</ele>
        <time>2017-01-17T15:07:59Z</time>
      </trkpt>
      <trkpt lat="44.20224" lon="2.28876">
        <ele>339</ele>
        <time>2017-01-17T15:08:09Z</time>
      </trkpt>
      <trkpt lat="44.20216" lon="2.28874">
        <ele>337.56</ele>
        <time>2017-01-17T15:08:19Z</time>
      </trkpt>
      <trkpt lat="44.20215" lon="2.28856">
        <ele>339</ele>
        <time>2017-01-17T15:08:32Z</time>
      </trkpt>
      <trkpt lat="44.20216" lon="2.28835">
        <ele>339.96</ele>
        <time>2017-01-17T15:08:44Z</time>
      </trkpt>
      <trkpt lat="44.2022" lon="2.28819">
        <ele>337.56</ele>
        <time>2017-01-17T15:08:55Z</time>
      </trkpt>
      <trkpt lat="44.20221" lon="2.28802">
        <ele>336.12</ele>
        <time>2017-01-17T15:09:06Z</time>
      </trkpt>
      <trkpt lat="44.20217" lon="2.28788">
        <ele>338.52</ele>
        <time>2017-01-17T15:09:19Z</time>
      </trkpt>
      <trkpt lat="44.20213" lon="2.28773">
        <ele>340.92</ele>
        <time>2017-01-17T15:09:32Z</time>
      </trkpt>
      <trkpt lat="44.20207" lon="2.28761">
        <ele>343.81</ele>
        <time>2017-01-17T15:09:48Z</time>
      </trkpt>
      <trkpt lat="44.202" lon="2.28753">
        <ele>346.21</ele>
        <time>2017-01-17T15:10:00Z</time>
      </trkpt>
      <trkpt lat="44.20191" lon="2.2875">
        <ele>346.69</ele>
        <time>2017-01-17T15:10:12Z</time>
      </trkpt>
      <trkpt lat="44.2018" lon="2.28753">
        <ele>348.13</ele>
        <time>2017-01-17T15:10:25Z</time>
      </trkpt>
      <trkpt lat="44.2017" lon="2.28753">
        <ele>349.58</ele>
        <time>2017-01-17T15:10:45Z</time>
      </trkpt>
      <trkpt lat="44.20159" lon="2.28753">
        <ele>350.06</ele>
        <time>2017-01-17T15:11:08Z</time>
      </trkpt>
      <trkpt lat="44.20145" lon="2.28756">
        <ele>351.98</ele>
        <time>2017-01-17T15:11:32Z</time>
      </trkpt>
      <trkpt lat="44.20133" lon="2.28757">
        <ele>354.38</ele>
        <time>2017-01-17T15:11:48Z</time>
      </trkpt>
      <trkpt lat="44.2012" lon="2.28757">
        <ele>356.31</ele>
        <time>2017-01-17T15:12:03Z</time>
      </trkpt>
      <trkpt lat="44.20103" lon="2.28757">
        <ele>358.71</ele>
        <time>2017-01-17T15:12:22Z</time>
      </trkpt>
      <trkpt lat="44.20095" lon="2.28756">
        <ele>361.11</ele>
        <time>2017-01-17T15:13:43Z</time>
      </trkpt>
      <trkpt lat="44.20113" lon="2.28765">
        <ele>363.04</ele>
        <time>2017-01-17T15:14:15Z</time>
      </trkpt>
      <trkpt lat="44.20122" lon="2.28774">
        <ele>366.4</ele>
        <time>2017-01-17T15:14:36Z</time>
      </trkpt>
      <trkpt lat="44.20129" lon="2.28784">
        <ele>368.8</ele>
        <time>2017-01-17T15:14:53Z</time>
      </trkpt>
      <trkpt lat="44.20139" lon="2.28795">
        <ele>371.21</ele>
        <time>2017-01-17T15:15:12Z</time>
      </trkpt>
      <trkpt lat="44.20146" lon="2.28809">
        <ele>374.57</ele>
        <time>2017-01-17T15:15:46Z</time>
      </trkpt>
      <trkpt lat="44.20154" lon="2.2882">
        <ele>377.45</ele>
        <time>2017-01-17T15:16:02Z</time>
      </trkpt>
      <trkpt lat="44.20153" lon="2.28836">
        <ele>379.86</ele>
        <time>2017-01-17T15:16:39Z</time>
      </trkpt>
      <trkpt lat="44.20151" lon="2.28848">
        <ele>381.3</ele>
        <time>2017-01-17T15:17:06Z</time>
      </trkpt>
      <trkpt lat="44.20145" lon="2.28862">
        <ele>383.7</ele>
        <time>2017-01-17T15:17:24Z</time>
      </trkpt>
      <trkpt lat="44.20137" lon="2.28873">
        <ele>386.11</ele>
        <time>2017-01-17T15:17:41Z</time>
      </trkpt>
      <trkpt lat="44.20129" lon="2.28885">
        <ele>387.55</ele>
        <time>2017-01-17T15:18:12Z</time>
      </trkpt>
      <trkpt lat="44.2012" lon="2.28895">
        <ele>389.95</ele>
        <time>2017-01-17T15:18:28Z</time>
      </trkpt>
      <trkpt lat="44.20109" lon="2.28902">
        <ele>390.43</ele>
        <time>2017-01-17T15:18:49Z</time>
      </trkpt>
      <trkpt lat="44.20099" lon="2.28908">
        <ele>394.28</ele>
        <time>2017-01-17T15:19:07Z</time>
      </trkpt>
      <trkpt lat="44.20083" lon="2.28913">
        <ele>396.2</ele>
        <time>2017-01-17T15:19:55Z</time>
      </trkpt>
      <trkpt lat="44.20072" lon="2.28913">
        <ele>399.08</ele>
        <time>2017-01-17T15:20:11Z</time>
      </trkpt>
      <trkpt lat="44.20066" lon="2.28902">
        <ele>401.97</ele>
        <time>2017-01-17T15:20:27Z</time>
      </trkpt>
      <trkpt lat="44.20059" lon="2.2889">
        <ele>403.41</ele>
        <time>2017-01-17T15:20:42Z</time>
      </trkpt>
      <trkpt lat="44.20054" lon="2.28877">
        <ele>403.89</ele>
        <time>2017-01-17T15:21:34Z</time>
      </trkpt>
      <trkpt lat="44.20047" lon="2.28868">
        <ele>404.37</ele>
        <time>2017-01-17T15:21:44Z</time>
      </trkpt>
      <trkpt lat="44.2004" lon="2.2886">
        <ele>404.85</ele>
        <time>2017-01-17T15:21:55Z</time>
      </trkpt>
      <trkpt lat="44.20031" lon="2.28852">
        <ele>405.81</ele>
        <time>2017-01-17T15:22:07Z</time>
      </trkpt>
      <trkpt lat="44.20022" lon="2.28843">
        <ele>407.26</ele>
        <time>2017-01-17T15:22:19Z</time>
      </trkpt>
      <trkpt lat="44.20015" lon="2.28833">
        <ele>408.22</ele>
        <time>2017-01-17T15:22:31Z</time>
      </trkpt>
      <trkpt lat="44.20006" lon="2.28823">
        <ele>408.7</ele>
        <time>2017-01-17T15:22:43Z</time>
      </trkpt>
      <trkpt lat="44.19997" lon="2.28814">
        <ele>409.66</ele>
        <time>2017-01-17T15:22:54Z</time>
      </trkpt>
      <trkpt lat="44.19987" lon="2.28809">
        <ele>411.58</ele>
        <time>2017-01-17T15:23:05Z</time>
      </trkpt>
      <trkpt lat="44.19977" lon="2.28805">
        <ele>412.54</ele>
        <time>2017-01-17T15:23:15Z</time>
      </trkpt>
      <trkpt lat="44.19967" lon="2.28802">
        <ele>413.02</ele>
        <time>2017-01-17T15:23:24Z</time>
      </trkpt>
      <trkpt lat="44.19957" lon="2.288">
        <ele>413.02</ele>
        <time>2017-01-17T15:23:34Z</time>
      </trkpt>
      <trkpt lat="44.19947" lon="2.28797">
        <ele>412.54</ele>
        <time>2017-01-17T15:23:43Z</time>
      </trkpt>
      <trkpt lat="44.19939" lon="2.28799">
        <ele>413.02</ele>
        <time>2017-01-17T15:23:52Z</time>
      </trkpt>
      <trkpt lat="44.19934" lon="2.2881">
        <ele>413.02</ele>
        <time>2017-01-17T15:24:02Z</time>
      </trkpt>
      <trkpt lat="44.19929" lon="2.28822">
        <ele>413.02</ele>
        <time>2017-01-17T15:24:13Z</time>
      </trkpt>
      <trkpt lat="44.19923" lon="2.28832">
        <ele>414.47</ele>
        <time>2017-01-17T15:24:23Z</time>
      </trkpt>
      <trkpt lat="44.19918" lon="2.28843">
        <ele>416.39</ele>
        <time>2017-01-17T15:24:34Z</time>
      </trkpt>
      <trkpt lat="44.19914" lon="2.28852">
        <ele>418.31</ele>
        <time>2017-01-17T15:25:02Z</time>
      </trkpt>
      <trkpt lat="44.19908" lon="2.28861">
        <ele>420.23</ele>
        <time>2017-01-17T15:25:13Z</time>
      </trkpt>
      <trkpt lat="44.19903" lon="2.28871">
        <ele>421.68</ele>
        <time>2017-01-17T15:25:26Z</time>
      </trkpt>
      <trkpt lat="44.19897" lon="2.28882">
        <ele>423.12</ele>
        <time>2017-01-17T15:25:38Z</time>
      </trkpt>
      <trkpt lat="44.1989" lon="2.2889">
        <ele>426.48</ele>
        <time>2017-01-17T15:25:52Z</time>
      </trkpt>
      <trkpt lat="44.19879" lon="2.28887">
        <ele>426.48</ele>
        <time>2017-01-17T15:26:02Z</time>
      </trkpt>
      <trkpt lat="44.19871" lon="2.2888">
        <ele>426.48</ele>
        <time>2017-01-17T15:26:11Z</time>
      </trkpt>
      <trkpt lat="44.19864" lon="2.2887">
        <ele>426.48</ele>
        <time>2017-01-17T15:26:20Z</time>
      </trkpt>
      <trkpt lat="44.1986" lon="2.28864">
        <ele>425.04</ele>
        <time>2017-01-17T15:26:54Z</time>
      </trkpt>
      <trkpt lat="44.19852" lon="2.28854">
        <ele>426.48</ele>
        <time>2017-01-17T15:27:03Z</time>
      </trkpt>
      <trkpt lat="44.19846" lon="2.28844">
        <ele>427.44</ele>
        <time>2017-01-17T15:27:11Z</time>
      </trkpt>
      <trkpt lat="44.19839" lon="2.28834">
        <ele>427.92</ele>
        <time>2017-01-17T15:27:19Z</time>
      </trkpt>
      <trkpt lat="44.19833" lon="2.28825">
        <ele>429.37</ele>
        <time>2017-01-17T15:27:27Z</time>
      </trkpt>
      <trkpt lat="44.19826" lon="2.28815">
        <ele>429.37</ele>
        <time>2017-01-17T15:27:36Z</time>
      </trkpt>
      <trkpt lat="44.19819" lon="2.28806">
        <ele>429.85</ele>
        <time>2017-01-17T15:27:45Z</time>
      </trkpt>
      <trkpt lat="44.19811" lon="2.28797">
        <ele>429.85</ele>
        <time>2017-01-17T15:27:54Z</time>
      </trkpt>
      <trkpt lat="44.19804" lon="2.28789">
        <ele>429.85</ele>
        <time>2017-01-17T15:28:13Z</time>
      </trkpt>
      <trkpt lat="44.19796" lon="2.2878">
        <ele>429.85</ele>
        <time>2017-01-17T15:28:23Z</time>
      </trkpt>
      <trkpt lat="44.19788" lon="2.28771">
        <ele>430.33</ele>
        <time>2017-01-17T15:28:33Z</time>
      </trkpt>
      <trkpt lat="44.19778" lon="2.28766">
        <ele>430.81</ele>
        <time>2017-01-17T15:28:43Z</time>
      </trkpt>
      <trkpt lat="44.19768" lon="2.28761">
        <ele>431.29</ele>
        <time>2017-01-17T15:28:52Z</time>
      </trkpt>
      <trkpt lat="44.19759" lon="2.28754">
        <ele>431.29</ele>
        <time>2017-01-17T15:29:01Z</time>
      </trkpt>
      <trkpt lat="44.1975" lon="2.28747">
        <ele>431.29</ele>
        <time>2017-01-17T15:29:10Z</time>
      </trkpt>
      <trkpt lat="44.19741" lon="2.28747">
        <ele>431.29</ele>
        <time>2017-01-17T15:29:19Z</time>
      </trkpt>
      <trkpt lat="44.19736" lon="2.28756">
        <ele>431.29</ele>
        <time>2017-01-17T15:29:28Z</time>
      </trkpt>
      <trkpt lat="44.19726" lon="2.2876">
        <ele>431.29</ele>
        <time>2017-01-17T15:29:38Z</time>
      </trkpt>
      <trkpt lat="44.19722" lon="2.28746">
        <ele>431.29</ele>
        <time>2017-01-17T15:29:47Z</time>
      </trkpt>
      <trkpt lat="44.1972" lon="2.28732">
        <ele>429.85</ele>
        <time>2017-01-17T15:29:58Z</time>
      </trkpt>
      <trkpt lat="44.19718" lon="2.28717">
        <ele>429.37</ele>
        <time>2017-01-17T15:30:15Z</time>
      </trkpt>
      <trkpt lat="44.19716" lon="2.28704">
        <ele>428.4</ele>
        <time>2017-01-17T15:30:24Z</time>
      </trkpt>
      <trkpt lat="44.19716" lon="2.28693">
        <ele>427.92</ele>
        <time>2017-01-17T15:30:34Z</time>
      </trkpt>
      <trkpt lat="44.19712" lon="2.28683">
        <ele>428.4</ele>
        <time>2017-01-17T15:30:53Z</time>
      </trkpt>
      <trkpt lat="44.19704" lon="2.28678">
        <ele>428.4</ele>
        <time>2017-01-17T15:31:03Z</time>
      </trkpt>
      <trkpt lat="44.19696" lon="2.28675">
        <ele>428.4</ele>
        <time>2017-01-17T15:31:25Z</time>
      </trkpt>
      <trkpt lat="44.19686" lon="2.28673">
        <ele>428.4</ele>
        <time>2017-01-17T15:31:36Z</time>
      </trkpt>
    </trkseg>
  </trk>
</gpx>